Time,TemperatureF,DewpointF,PressureIn,WindDirection,WindDirectionDegrees,WindSpeedMPH,WindSpeedGustMPH,Humidity,HourlyPrecipIn,Conditions,Clouds,dailyrainin,SoftwareType,DateUTC
2013-08-01 00:00:00,63.6,62.1,29.97,NNW,329,0.0,0.0,95,0.00,RA,,0.00,WeatherDisplay:10.37,2013-08-01 04:00:00,
2013-08-01 00:01:00,63.6,62.1,29.97,NNW,329,0.0,0.0,95,0.00,RA,,0.00,WeatherDisplay:10.37,2013-08-01 04:01:00,
2013-08-01 00:02:00,63.5,62.0,29.97,NNW,329,0.0,0.0,95,0.00,RA,,0.00,WeatherDisplay:10.37,2013-08-01 04:02:00,
2013-08-01 00:06:00,63.3,61.8,29.97,NNW,329,0.0,0.0,95,0.00,RA,,0.00,WeatherDisplay:10.37,2013-08-01 04:06:00,
2013-08-01 00:07:00,63.3,62.1,29.97,NNW,329,0.0,0.0,96,0.00,RA,,0.00,WeatherDisplay:10.37,2013-08-01 04:07:00,
2013-08-01 00:08:00,63.3,62.1,29.97,NNW,329,0.0,0.0,96,0.00,RA,,0.00,WeatherDisplay:10.37,2013-08-01 04:08:00,
2013-08-01 00:11:00,63.3,62.1,29.97,NNW,329,0.0,0.0,96,0.00,CLR,,0.00,WeatherDisplay:10.37,2013-08-01 04:11:00,
2013-08-01 00:12:00,63.3,62.1,29.97,NNW,329,0.0,0.0,96,0.00,CLR,,0.00,WeatherDisplay:10.37,2013-08-01 04:12:00,
2013-08-01 00:13:00,63.2,62.0,29.97,NNW,329,0.0,0.0,96,0.00,CLR,,0.00,WeatherDisplay:10.37,2013-08-01 04:13:00,
2013-08-01 00:17:00,63.0,61.8,29.97,NNW,329,0.8,2.3,96,0.00,CLR,,0.00,WeatherDisplay:10.37,2013-08-01 04:17:00,
2013-08-01 00:18:00,63.0,61.8,29.97,NNW,329,0.1,2.3,96,0.00,CLR,,0.00,WeatherDisplay:10.37,2013-08-01 04:18:00,
2013-08-01 00:22:00,63.0,61.8,29.97,NNW,329,0.0,1.1,96,0.00,CLR,,0.00,WeatherDisplay:10.37,2013-08-01 04:22:00,
2013-08-01 00:23:00,63.0,61.8,29.97,NNW,329,0.4,1.1,96,0.00,CLR,,0.00,WeatherDisplay:10.37,2013-08-01 04:23:00,
2013-08-01 00:27:00,62.9,61.7,29.98,NNW,329,0.0,0.0,96,0.00,CLR,,0.00,WeatherDisplay:10.37,2013-08-01 04:27:00,
2013-08-01 00:28:00,62.8,61.6,29.98,NNW,329,0.0,0.0,96,0.00,CLR,,0.00,WeatherDisplay:10.37,2013-08-01 04:28:00,
2013-08-01 00:32:00,62.9,62.0,29.98,NNW,329,0.0,0.0,97,0.00,CLR,,0.00,WeatherDisplay:10.37,2013-08-01 04:32:00,
2013-08-01 00:33:00,62.9,62.0,29.98,NNW,329,0.0,0.0,97,0.00,CLR,,0.00,WeatherDisplay:10.37,2013-08-01 04:33:00,
2013-08-01 00:37:00,62.9,62.0,29.97,NNW,329,0.0,0.0,97,0.00,CLR,,0.00,WeatherDisplay:10.37,2013-08-01 04:37:00,
2013-08-01 00:38:00,62.9,62.0,29.97,NNW,329,0.0,0.0,97,0.00,CLR,,0.00,WeatherDisplay:10.37,2013-08-01 04:38:00,
2013-08-01 00:39:00,63.0,62.1,29.97,NNW,329,0.0,0.0,97,0.00,CLR,,0.00,WeatherDisplay:10.37,2013-08-01 04:39:00,
2013-08-01 00:43:00,62.9,62.0,29.97,NNW,329,0.0,0.0,97,0.00,CLR,,0.00,WeatherDisplay:10.37,2013-08-01 04:43:00,
2013-08-01 00:44:00,62.9,62.0,29.97,NNW,329,0.0,0.0,97,0.00,CLR,,0.00,WeatherDisplay:10.37,2013-08-01 04:44:00,
2013-08-01 00:48:00,62.8,61.9,29.97,NNW,329,0.0,0.0,97,0.00,CLR,,0.00,WeatherDisplay:10.37,2013-08-01 04:48:00,
2013-08-01 00:49:00,62.7,61.8,29.97,NNW,329,0.0,0.0,97,0.00,CLR,,0.00,WeatherDisplay:10.37,2013-08-01 04:49:00,
2013-08-01 00:53:00,62.5,61.6,29.97,NNW,329,0.0,0.0,97,0.00,CLR,,0.00,WeatherDisplay:10.37,2013-08-01 04:53:00,
2013-08-01 00:54:00,62.5,61.6,29.97,NNW,329,0.0,0.0,97,0.00,CLR,,0.00,WeatherDisplay:10.37,2013-08-01 04:54:00,
2013-08-01 00:58:00,62.4,61.2,29.97,NNW,329,0.0,0.0,96,0.00,CLR,,0.00,WeatherDisplay:10.37,2013-08-01 04:58:00,
2013-08-01 00:59:00,62.4,61.5,29.97,NNW,329,0.0,0.0,97,0.00,CLR,,0.00,WeatherDisplay:10.37,2013-08-01 04:59:00,
2013-08-01 01:00:00,62.5,61.6,29.97,NNW,329,0.0,0.0,97,0.00,CLR,,0.00,WeatherDisplay:10.37,2013-08-01 05:00:00,
2013-08-01 01:04:00,62.5,61.6,29.97,NNW,329,0.0,0.0,97,0.00,CLR,,0.00,WeatherDisplay:10.37,2013-08-01 05:04:00,
2013-08-01 01:05:00,62.5,61.6,29.97,NNW,329,0.0,0.0,97,0.00,CLR,,0.00,WeatherDisplay:10.37,2013-08-01 05:05:00,
2013-08-01 01:06:00,62.5,61.6,29.97,NNW,329,0.0,0.0,97,0.00,CLR,,0.00,WeatherDisplay:10.37,2013-08-01 05:06:00,
2013-08-01 01:09:00,62.4,61.5,29.97,NNW,329,0.0,0.0,97,0.00,CLR,,0.00,WeatherDisplay:10.37,2013-08-01 05:09:00,
2013-08-01 01:10:00,62.3,61.4,29.97,NNW,329,0.0,0.0,97,0.00,CLR,,0.00,WeatherDisplay:10.37,2013-08-01 05:10:00,
2013-08-01 01:11:00,62.4,61.5,29.97,NNW,329,0.0,0.0,97,0.00,CLR,,0.00,WeatherDisplay:10.37,2013-08-01 05:11:00,
2013-08-01 01:14:00,62.3,61.4,29.97,WNW,286,0.8,2.3,97,0.00,CLR,,0.00,WeatherDisplay:10.37,2013-08-01 05:14:00,
2013-08-01 01:15:00,62.3,61.4,29.97,NW,322,1.0,2.0,97,0.00,CLR,,0.00,WeatherDisplay:10.37,2013-08-01 05:15:00,
2013-08-01 01:17:00,62.3,61.4,29.96,WNW,286,0.1,1.1,97,0.00,CLR,,0.00,WeatherDisplay:10.37,2013-08-01 05:17:00,
2013-08-01 01:19:00,62.3,61.4,29.97,WNW,286,0.0,0.0,97,0.00,CLR,,0.00,WeatherDisplay:10.37,2013-08-01 05:19:00,
2013-08-01 01:20:00,62.3,61.4,29.97,WNW,286,0.0,0.0,97,0.00,CLR,,0.00,WeatherDisplay:10.37,2013-08-01 05:20:00,
2013-08-01 01:22:00,62.2,61.3,29.96,WNW,286,0.0,0.0,97,0.00,CLR,,0.00,WeatherDisplay:10.37,2013-08-01 05:22:00,
2013-08-01 01:25:00,62.1,61.2,29.97,WNW,285,0.0,0.0,97,0.00,CLR,,0.00,WeatherDisplay:10.37,2013-08-01 05:25:00,
2013-08-01 01:27:00,62.0,61.1,29.97,WNW,285,0.0,0.0,97,0.00,CLR,,0.00,WeatherDisplay:10.37,2013-08-01 05:27:00,
2013-08-01 01:28:00,62.0,61.1,29.97,WNW,285,0.0,1.1,97,0.00,CLR,,0.00,WeatherDisplay:10.37,2013-08-01 05:28:00,
2013-08-01 01:30:00,61.9,61.0,29.97,WNW,285,0.0,1.1,97,0.00,CLR,,0.00,WeatherDisplay:10.37,2013-08-01 05:30:00,
2013-08-01 01:32:00,61.8,60.9,29.97,WNW,285,0.0,0.0,97,0.00,CLR,,0.00,WeatherDisplay:10.37,2013-08-01 05:32:00,
2013-08-01 01:33:00,61.8,60.9,29.97,WNW,285,0.0,0.0,97,0.00,CLR,,0.00,WeatherDisplay:10.37,2013-08-01 05:33:00,
2013-08-01 01:35:00,61.9,61.0,29.97,WNW,285,0.0,0.0,97,0.00,CLR,,0.00,WeatherDisplay:10.37,2013-08-01 05:35:00,
2013-08-01 01:36:00,61.8,60.9,29.97,WNW,285,0.0,0.0,97,0.00,CLR,,0.00,WeatherDisplay:10.37,2013-08-01 05:36:00,
2013-08-01 01:37:00,61.8,60.9,29.97,WNW,285,0.0,0.0,97,0.00,CLR,,0.00,WeatherDisplay:10.37,2013-08-01 05:37:00,
2013-08-01 01:38:00,61.8,60.9,29.97,WNW,285,0.0,0.0,97,0.00,CLR,,0.00,WeatherDisplay:10.37,2013-08-01 05:38:00,
2013-08-01 01:39:00,61.8,60.9,29.97,WNW,285,0.0,0.0,97,0.00,CLR,,0.00,WeatherDisplay:10.37,2013-08-01 05:39:00,
2013-08-01 01:40:00,61.8,60.9,29.97,WNW,285,0.0,0.0,97,0.00,CLR,,0.00,WeatherDisplay:10.37,2013-08-01 05:40:00,
2013-08-01 01:41:00,61.7,60.8,29.97,WNW,285,0.0,0.0,97,0.00,CLR,,0.00,WeatherDisplay:10.37,2013-08-01 05:41:00,
2013-08-01 01:42:00,61.7,60.8,29.97,WNW,285,0.0,0.0,97,0.00,CLR,,0.00,WeatherDisplay:10.37,2013-08-01 05:42:00,
2013-08-01 01:43:00,61.7,60.8,29.97,WNW,285,0.0,0.0,97,0.00,CLR,,0.00,WeatherDisplay:10.37,2013-08-01 05:43:00,
2013-08-01 01:44:00,61.7,60.8,29.97,WNW,285,0.0,0.0,97,0.00,CLR,,0.00,WeatherDisplay:10.37,2013-08-01 05:44:00,
2013-08-01 01:46:00,61.6,60.7,29.97,WNW,285,0.0,0.0,97,0.00,CLR,,0.00,WeatherDisplay:10.37,2013-08-01 05:46:00,
2013-08-01 01:47:00,61.6,60.7,29.97,WNW,285,0.0,0.0,97,0.00,CLR,,0.00,WeatherDisplay:10.37,2013-08-01 05:47:00,
2013-08-01 01:48:00,61.6,60.7,29.97,WNW,285,0.0,0.0,97,0.00,CLR,,0.00,WeatherDisplay:10.37,2013-08-01 05:48:00,
2013-08-01 01:49:00,61.6,60.7,29.96,WNW,285,0.0,0.0,97,0.00,CLR,,0.00,WeatherDisplay:10.37,2013-08-01 05:49:00,
2013-08-01 01:52:00,61.6,60.7,29.96,WNW,285,0.0,0.0,97,0.00,CLR,,0.00,WeatherDisplay:10.37,2013-08-01 05:52:00,
2013-08-01 01:53:00,61.6,60.7,29.96,WNW,285,0.0,0.0,97,0.00,CLR,,0.00,WeatherDisplay:10.37,2013-08-01 05:53:00,
2013-08-01 01:55:00,61.6,60.7,29.96,WNW,285,0.0,0.0,97,0.00,CLR,,0.00,WeatherDisplay:10.37,2013-08-01 05:55:00,
2013-08-01 01:57:00,61.6,60.7,29.96,WNW,285,0.0,0.0,97,0.00,CLR,,0.00,WeatherDisplay:10.37,2013-08-01 05:57:00,
2013-08-01 01:58:00,61.6,60.7,29.96,WNW,285,0.0,0.0,97,0.00,CLR,,0.00,WeatherDisplay:10.37,2013-08-01 05:58:00,
2013-08-01 02:00:00,61.6,60.7,29.96,WNW,285,0.0,0.0,97,0.00,CLR,,0.00,WeatherDisplay:10.37,2013-08-01 06:00:00,
2013-08-01 02:02:00,61.7,60.8,29.96,WNW,285,0.0,0.0,97,0.00,CLR,,0.00,WeatherDisplay:10.37,2013-08-01 06:02:00,
2013-08-01 02:03:00,61.8,60.9,29.96,WNW,285,0.0,0.0,97,0.00,CLR,,0.00,WeatherDisplay:10.37,2013-08-01 06:03:00,
2013-08-01 02:04:00,61.8,61.2,29.96,WNW,285,0.0,0.0,98,0.00,CLR,,0.00,WeatherDisplay:10.37,2013-08-01 06:04:00,
2013-08-01 02:05:00,61.8,61.2,29.96,WNW,285,0.0,0.0,98,0.00,CLR,,0.00,WeatherDisplay:10.37,2013-08-01 06:05:00,
2013-08-01 02:07:00,61.9,61.3,29.96,WNW,285,0.0,0.0,98,0.00,CLR,,0.00,WeatherDisplay:10.37,2013-08-01 06:07:00,
2013-08-01 02:08:00,61.8,61.2,29.96,WNW,285,0.0,0.0,98,0.00,CLR,,0.00,WeatherDisplay:10.37,2013-08-01 06:08:00,
2013-08-01 02:09:00,61.8,61.2,29.96,WNW,285,0.0,0.0,98,0.00,CLR,,0.00,WeatherDisplay:10.37,2013-08-01 06:09:00,
2013-08-01 02:10:00,61.8,61.2,29.96,WNW,285,0.0,0.0,98,0.00,CLR,,0.00,WeatherDisplay:10.37,2013-08-01 06:10:00,
2013-08-01 02:13:00,61.8,61.2,29.96,WNW,285,0.0,0.0,98,0.00,CLR,,0.00,WeatherDisplay:10.37,2013-08-01 06:13:00,
2013-08-01 02:14:00,61.8,61.2,29.96,WNW,285,0.0,0.0,98,0.00,CLR,,0.00,WeatherDisplay:10.37,2013-08-01 06:14:00,
2013-08-01 02:15:00,61.7,60.8,29.95,WNW,285,0.0,0.0,97,0.00,CLR,,0.00,WeatherDisplay:10.37,2013-08-01 06:15:00,
2013-08-01 02:18:00,61.7,60.8,29.95,WNW,285,0.0,0.0,97,0.00,CLR,,0.00,WeatherDisplay:10.37,2013-08-01 06:18:00,
2013-08-01 02:19:00,61.6,60.7,29.95,WNW,285,0.0,0.0,97,0.00,CLR,,0.00,WeatherDisplay:10.37,2013-08-01 06:19:00,
2013-08-01 02:20:00,61.6,60.7,29.95,WNW,285,0.0,0.0,97,0.00,CLR,,0.00,WeatherDisplay:10.37,2013-08-01 06:20:00,
2013-08-01 02:21:00,61.5,60.6,29.95,WNW,285,0.0,0.0,97,0.00,CLR,,0.00,WeatherDisplay:10.37,2013-08-01 06:21:00,
2013-08-01 02:23:00,61.5,60.6,29.95,WNW,285,0.0,0.0,97,0.00,CLR,,0.00,WeatherDisplay:10.37,2013-08-01 06:23:00,
2013-08-01 02:24:00,61.5,60.6,29.95,WNW,285,0.0,0.0,97,0.00,CLR,,0.00,WeatherDisplay:10.37,2013-08-01 06:24:00,
2013-08-01 02:25:00,61.4,60.5,29.95,WNW,285,0.0,0.0,97,0.00,CLR,,0.00,WeatherDisplay:10.37,2013-08-01 06:25:00,
2013-08-01 02:26:00,61.4,60.5,29.95,WNW,285,0.0,0.0,97,0.00,CLR,,0.00,WeatherDisplay:10.37,2013-08-01 06:26:00,
2013-08-01 02:28:00,61.4,60.5,29.95,WNW,285,0.0,0.0,97,0.00,CLR,,0.00,WeatherDisplay:10.37,2013-08-01 06:28:00,
2013-08-01 02:29:00,61.3,60.4,29.95,WNW,285,0.0,0.0,97,0.00,CLR,,0.00,WeatherDisplay:10.37,2013-08-01 06:29:00,
2013-08-01 02:30:00,61.3,60.4,29.95,WNW,285,0.0,0.0,97,0.00,CLR,,0.00,WeatherDisplay:10.37,2013-08-01 06:30:00,
2013-08-01 02:32:00,61.1,60.2,29.95,WNW,285,0.0,0.0,97,0.00,CLR,,0.00,WeatherDisplay:10.37,2013-08-01 06:32:00,
2013-08-01 02:33:00,60.9,60.0,29.96,WNW,285,0.0,0.0,97,0.00,CLR,,0.00,WeatherDisplay:10.37,2013-08-01 06:33:00,
2013-08-01 02:34:00,60.9,60.0,29.96,WNW,285,0.0,0.0,97,0.00,CLR,,0.00,WeatherDisplay:10.37,2013-08-01 06:34:00,
2013-08-01 02:35:00,60.7,59.8,29.96,WNW,285,0.0,0.0,97,0.00,CLR,,0.00,WeatherDisplay:10.37,2013-08-01 06:35:00,
2013-08-01 02:38:00,60.7,59.8,29.95,WNW,285,1.3,2.3,97,0.00,CLR,,0.00,WeatherDisplay:10.37,2013-08-01 06:38:00,
2013-08-01 02:39:00,60.6,59.7,29.95,WNW,285,0.9,2.3,97,0.00,CLR,,0.00,WeatherDisplay:10.37,2013-08-01 06:39:00,
2013-08-01 02:40:00,60.6,59.7,29.95,WSW,249,1.3,2.3,97,0.00,CLR,,0.00,WeatherDisplay:10.37,2013-08-01 06:40:00,
2013-08-01 02:43:00,60.6,59.7,29.95,WSW,243,0.1,1.1,97,0.00,CLR,,0.00,WeatherDisplay:10.37,2013-08-01 06:43:00,
2013-08-01 02:44:00,60.6,59.7,29.96,WSW,243,0.1,1.1,97,0.00,CLR,,0.00,WeatherDisplay:10.37,2013-08-01 06:44:00,
2013-08-01 02:45:00,60.7,59.8,29.96,WSW,243,0.0,1.1,97,0.00,CLR,,0.00,WeatherDisplay:10.37,2013-08-01 06:45:00,
2013-08-01 02:46:00,60.7,59.8,29.95,WSW,243,0.0,0.0,97,0.00,CLR,,0.00,WeatherDisplay:10.37,2013-08-01 06:46:00,
2013-08-01 02:49:00,60.7,59.8,29.95,WSW,243,0.0,0.0,97,0.00,CLR,,0.00,WeatherDisplay:10.37,2013-08-01 06:49:00,
2013-08-01 02:50:00,60.7,59.8,29.95,WSW,243,0.0,0.0,97,0.00,CLR,,0.00,WeatherDisplay:10.37,2013-08-01 06:50:00,
2013-08-01 02:52:00,60.8,60.2,29.95,WSW,243,0.0,0.0,98,0.00,CLR,,0.00,WeatherDisplay:10.37,2013-08-01 06:52:00,
2013-08-01 02:54:00,60.8,60.2,29.95,WSW,243,0.0,0.0,98,0.00,CLR,,0.00,WeatherDisplay:10.37,2013-08-01 06:54:00,
2013-08-01 02:55:00,60.8,60.2,29.95,WSW,243,0.0,0.0,98,0.00,CLR,,0.00,WeatherDisplay:10.37,2013-08-01 06:55:00,
2013-08-01 02:57:00,60.9,60.3,29.95,WSW,243,0.0,0.0,98,0.00,CLR,,0.00,WeatherDisplay:10.37,2013-08-01 06:57:00,
2013-08-01 02:59:00,60.9,60.3,29.95,WSW,243,0.0,0.0,98,0.00,CLR,,0.00,WeatherDisplay:10.37,2013-08-01 06:59:00,
2013-08-01 03:00:00,61.0,60.4,29.95,WSW,243,0.0,0.0,98,0.00,CLR,,0.00,WeatherDisplay:10.37,2013-08-01 07:00:00,
2013-08-01 03:03:00,61.0,60.4,29.95,WSW,243,0.0,0.0,98,0.00,CLR,,0.00,WeatherDisplay:10.37,2013-08-01 07:03:00,
2013-08-01 03:04:00,61.0,60.4,29.95,WSW,243,0.0,0.0,98,0.00,CLR,,0.00,WeatherDisplay:10.37,2013-08-01 07:04:00,
2013-08-01 03:05:00,61.0,60.4,29.95,WSW,243,0.0,0.0,98,0.00,CLR,,0.00,WeatherDisplay:10.37,2013-08-01 07:05:00,
2013-08-01 03:08:00,61.0,60.4,29.95,WSW,243,0.0,0.0,98,0.00,CLR,,0.00,WeatherDisplay:10.37,2013-08-01 07:08:00,
2013-08-01 03:10:00,61.1,60.5,29.96,WSW,243,0.0,0.0,98,0.00,CLR,,0.00,WeatherDisplay:10.37,2013-08-01 07:10:00,
2013-08-01 03:11:00,61.1,60.5,29.96,WSW,243,0.1,1.1,98,0.00,CLR,,0.00,WeatherDisplay:10.37,2013-08-01 07:11:00,
2013-08-01 03:13:00,61.1,60.5,29.96,WSW,243,0.1,0.0,98,0.00,CLR,,0.00,WeatherDisplay:10.37,2013-08-01 07:13:00,
2013-08-01 03:15:00,61.1,60.5,29.96,WSW,243,0.0,0.0,98,0.00,CLR,,0.00,WeatherDisplay:10.37,2013-08-01 07:15:00,
2013-08-01 03:17:00,61.2,60.6,29.96,WSW,243,0.0,0.0,98,0.00,CLR,,0.00,WeatherDisplay:10.37,2013-08-01 07:17:00,
2013-08-01 03:18:00,61.2,60.6,29.96,WSW,243,0.0,0.0,98,0.00,CLR,,0.00,WeatherDisplay:10.37,2013-08-01 07:18:00,
2013-08-01 03:20:00,61.2,60.6,29.96,WSW,243,0.0,0.0,98,0.00,CLR,,0.00,WeatherDisplay:10.37,2013-08-01 07:20:00,
2013-08-01 03:21:00,61.3,60.7,29.96,WSW,243,0.0,0.0,98,0.00,CLR,,0.00,WeatherDisplay:10.37,2013-08-01 07:21:00,
2013-08-01 03:22:00,61.3,60.7,29.96,WSW,243,0.0,0.0,98,0.00,CLR,,0.00,WeatherDisplay:10.37,2013-08-01 07:22:00,
2013-08-01 03:23:00,61.3,60.7,29.95,WSW,243,0.0,0.0,98,0.00,CLR,,0.00,WeatherDisplay:10.37,2013-08-01 07:23:00,
2013-08-01 03:25:00,61.3,60.7,29.95,WSW,243,0.0,0.0,98,0.00,CLR,,0.00,WeatherDisplay:10.37,2013-08-01 07:25:00,
2013-08-01 03:26:00,61.3,60.7,29.96,WSW,243,0.0,0.0,98,0.00,CLR,,0.00,WeatherDisplay:10.37,2013-08-01 07:26:00,
2013-08-01 03:28:00,61.3,60.7,29.96,WSW,243,0.0,0.0,98,0.00,CLR,,0.00,WeatherDisplay:10.37,2013-08-01 07:28:00,
2013-08-01 03:30:00,61.4,60.8,29.96,WSW,243,0.0,0.0,98,0.00,CLR,,0.00,WeatherDisplay:10.37,2013-08-01 07:30:00,
2013-08-01 03:31:00,61.3,60.7,29.96,WSW,243,0.0,0.0,98,0.00,CLR,,0.00,WeatherDisplay:10.37,2013-08-01 07:31:00,
2013-08-01 03:33:00,61.4,60.8,29.96,WSW,243,0.4,2.3,98,0.00,CLR,,0.00,WeatherDisplay:10.37,2013-08-01 07:33:00,
2013-08-01 03:34:00,61.4,60.8,29.96,WSW,243,0.4,2.3,98,0.00,CLR,,0.00,WeatherDisplay:10.37,2013-08-01 07:34:00,
2013-08-01 03:35:00,61.4,60.8,29.96,WSW,243,0.2,1.1,98,0.00,CLR,,0.00,WeatherDisplay:10.37,2013-08-01 07:35:00,
2013-08-01 03:36:00,61.4,60.8,29.96,WSW,243,0.4,1.1,98,0.00,CLR,,0.00,WeatherDisplay:10.37,2013-08-01 07:36:00,
2013-08-01 03:38:00,61.5,60.9,29.96,WSW,243,0.5,1.1,98,0.00,CLR,,0.00,WeatherDisplay:10.37,2013-08-01 07:38:00,
2013-08-01 03:39:00,61.5,60.9,29.96,WSW,243,0.7,1.1,98,0.00,CLR,,0.00,WeatherDisplay:10.37,2013-08-01 07:39:00,
2013-08-01 03:41:00,61.5,60.9,29.96,WSW,243,1.9,3.5,98,0.00,CLR,,0.00,WeatherDisplay:10.37,2013-08-01 07:41:00,
2013-08-01 03:42:00,61.5,60.9,29.96,WSW,243,0.5,3.5,98,0.00,CLR,,0.00,WeatherDisplay:10.37,2013-08-01 07:42:00,
2013-08-01 03:43:00,61.6,61.0,29.96,WSW,243,0.7,2.3,98,0.00,CLR,,0.00,WeatherDisplay:10.37,2013-08-01 07:43:00,
2013-08-01 03:44:00,61.6,61.0,29.96,WSW,243,0.7,1.1,98,0.00,CLR,,0.00,WeatherDisplay:10.37,2013-08-01 07:44:00,
2013-08-01 03:46:00,61.6,61.0,29.96,WSW,243,0.0,0.0,98,0.00,CLR,,0.00,WeatherDisplay:10.37,2013-08-01 07:46:00,
2013-08-01 03:47:00,61.6,61.0,29.96,WSW,243,0.0,1.0,98,0.00,CLR,,0.00,WeatherDisplay:10.37,2013-08-01 07:47:00,
2013-08-01 03:48:00,61.6,61.0,29.96,WSW,243,0.5,2.3,98,0.00,CLR,,0.00,WeatherDisplay:10.37,2013-08-01 07:48:00,
2013-08-01 03:50:00,61.6,61.0,29.96,WSW,243,0.8,2.3,98,0.00,CLR,,0.00,WeatherDisplay:10.37,2013-08-01 07:50:00,
2013-08-01 03:51:00,61.6,61.0,29.96,WSW,243,1.1,2.3,98,0.00,CLR,,0.00,WeatherDisplay:10.37,2013-08-01 07:51:00,
2013-08-01 03:52:00,61.6,61.0,29.96,WSW,243,1.5,2.3,98,0.00,CLR,,0.00,WeatherDisplay:10.37,2013-08-01 07:52:00,
2013-08-01 03:54:00,61.5,60.9,29.96,WSW,250,1.0,3.5,98,0.00,CLR,,0.00,WeatherDisplay:10.37,2013-08-01 07:54:00,
2013-08-01 03:55:00,61.5,60.9,29.96,WSW,250,0.9,2.3,98,0.00,CLR,,0.00,WeatherDisplay:10.37,2013-08-01 07:55:00,
2013-08-01 03:56:00,61.5,60.9,29.96,WSW,250,0.7,2.3,98,0.00,CLR,,0.00,WeatherDisplay:10.37,2013-08-01 07:56:00,
2013-08-01 03:57:00,61.4,60.8,29.96,WSW,250,0.6,2.3,98,0.00,CLR,,0.00,WeatherDisplay:10.37,2013-08-01 07:57:00,
2013-08-01 04:00:00,61.4,60.8,29.96,WSW,258,1.2,2.3,98,0.00,CLR,,0.00,WeatherDisplay:10.37,2013-08-01 08:00:00,
2013-08-01 04:01:00,61.4,60.8,29.96,WSW,258,0.3,2.3,98,0.00,CLR,,0.00,WeatherDisplay:10.37,2013-08-01 08:01:00,
2013-08-01 04:02:00,61.4,60.8,29.96,WSW,258,0.8,2.3,98,0.00,CLR,,0.00,WeatherDisplay:10.37,2013-08-01 08:02:00,
2013-08-01 04:07:00,61.4,60.8,29.96,WSW,258,0.1,1.1,98,0.00,CLR,,0.00,WeatherDisplay:10.37,2013-08-01 08:07:00,
2013-08-01 04:08:00,61.5,60.9,29.96,WSW,258,0.4,1.1,98,0.00,CLR,,0.00,WeatherDisplay:10.37,2013-08-01 08:08:00,
2013-08-01 04:12:00,61.7,61.1,29.96,WSW,258,0.9,2.3,98,0.00,CLR,,0.00,WeatherDisplay:10.37,2013-08-01 08:12:00,
2013-08-01 04:13:00,61.7,61.1,29.96,WSW,258,0.6,2.3,98,0.00,CLR,,0.00,WeatherDisplay:10.37,2013-08-01 08:13:00,
2013-08-01 04:18:00,61.9,61.3,29.96,WSW,258,0.4,1.1,98,0.00,CLR,,0.00,WeatherDisplay:10.37,2013-08-01 08:18:00,
2013-08-01 04:23:00,62.0,61.4,29.96,WSW,258,0.0,0.0,98,0.00,CLR,,0.00,WeatherDisplay:10.37,2013-08-01 08:23:00,
2013-08-01 04:25:00,62.0,61.4,29.96,WSW,258,0.0,1.0,98,0.00,CLR,,0.00,WeatherDisplay:10.37,2013-08-01 08:25:00,
2013-08-01 04:26:00,62.1,61.5,29.96,WSW,258,0.0,1.1,98,0.00,CLR,,0.00,WeatherDisplay:10.37,2013-08-01 08:26:00,
2013-08-01 04:29:00,62.1,61.5,29.96,WSW,258,0.0,0.0,98,0.00,CLR,,0.00,WeatherDisplay:10.37,2013-08-01 08:29:00,
2013-08-01 04:32:00,62.2,61.6,29.96,WSW,258,0.0,0.0,98,0.00,CLR,,0.00,WeatherDisplay:10.37,2013-08-01 08:32:00,
2013-08-01 04:34:00,62.2,61.6,29.96,WSW,258,0.0,0.0,98,0.00,CLR,,0.00,WeatherDisplay:10.37,2013-08-01 08:34:00,
2013-08-01 04:35:00,62.2,61.6,29.96,WSW,258,0.0,1.0,98,0.00,CLR,,0.00,WeatherDisplay:10.37,2013-08-01 08:35:00,
2013-08-01 04:36:00,62.3,61.7,29.96,West,271,0.2,1.1,98,0.00,CLR,,0.00,WeatherDisplay:10.37,2013-08-01 08:36:00,
2013-08-01 04:37:00,62.3,61.7,29.96,West,271,0.0,0.0,98,0.00,CLR,,0.00,WeatherDisplay:10.37,2013-08-01 08:37:00,
2013-08-01 04:40:00,62.3,61.7,29.96,West,268,1.0,3.0,98,0.00,CLR,,0.00,WeatherDisplay:10.37,2013-08-01 08:40:00,
2013-08-01 04:41:00,62.4,61.8,29.96,NW,307,0.1,3.5,98,0.00,CLR,,0.00,WeatherDisplay:10.37,2013-08-01 08:41:00,
2013-08-01 04:45:00,62.5,61.9,29.96,WNW,298,0.0,5.0,98,0.00,CLR,,0.00,WeatherDisplay:10.37,2013-08-01 08:45:00,
2013-08-01 04:46:00,62.6,62.0,29.96,NNW,327,0.6,3.0,98,0.00,CLR,,0.00,WeatherDisplay:10.37,2013-08-01 08:46:00,
2013-08-01 04:50:00,62.6,62.0,29.95,NNW,327,0.0,0.0,98,0.00,CLR,,0.00,WeatherDisplay:10.37,2013-08-01 08:50:00,
2013-08-01 04:52:00,62.6,62.0,29.95,NNW,327,0.0,0.0,98,0.00,CLR,,0.00,WeatherDisplay:10.37,2013-08-01 08:52:00,
2013-08-01 04:55:00,62.6,62.0,29.95,NNW,327,0.0,1.1,98,0.00,CLR,,0.00,WeatherDisplay:10.37,2013-08-01 08:55:00,
2013-08-01 04:59:00,62.5,61.9,29.96,WNW,290,0.0,2.3,98,0.00,CLR,,0.00,WeatherDisplay:10.37,2013-08-01 08:59:00,
2013-08-01 05:01:00,62.5,61.9,29.96,WNW,290,0.7,2.3,98,0.00,CLR,,0.00,WeatherDisplay:10.37,2013-08-01 09:01:00,
2013-08-01 05:05:00,62.6,62.0,29.96,WNW,290,1.0,3.0,98,0.00,CLR,,0.00,WeatherDisplay:10.37,2013-08-01 09:05:00,
2013-08-01 05:09:00,62.7,62.1,29.96,WNW,301,0.0,0.0,98,0.00,CLR,,0.00,WeatherDisplay:10.37,2013-08-01 09:09:00,
2013-08-01 05:10:00,62.7,62.1,29.96,WNW,295,0.0,2.0,98,0.00,CLR,,0.00,WeatherDisplay:10.37,2013-08-01 09:10:00,
2013-08-01 05:12:00,62.7,62.1,29.96,WNW,301,0.0,1.1,98,0.00,CLR,,0.00,WeatherDisplay:10.37,2013-08-01 09:12:00,
2013-08-01 05:15:00,62.7,62.1,29.96,NW,315,2.3,6.0,98,0.00,CLR,,0.00,WeatherDisplay:10.37,2013-08-01 09:15:00,
2013-08-01 05:17:00,62.7,62.1,29.96,NNW,327,1.1,5.8,98,0.00,CLR,,0.00,WeatherDisplay:10.37,2013-08-01 09:17:00,
2013-08-01 05:21:00,62.6,62.0,29.96,NW,314,0.5,3.5,98,0.00,CLR,,0.00,WeatherDisplay:10.37,2013-08-01 09:21:00,
2013-08-01 05:23:00,62.6,62.0,29.96,NW,306,0.9,3.5,98,0.00,CLR,,0.00,WeatherDisplay:10.37,2013-08-01 09:23:00,
2013-08-01 05:27:00,62.6,62.0,29.96,NW,319,0.3,2.3,98,0.00,CLR,,0.00,WeatherDisplay:10.37,2013-08-01 09:27:00,
2013-08-01 05:28:00,62.6,62.0,29.96,NW,317,1.1,3.5,98,0.00,CLR,,0.00,WeatherDisplay:10.37,2013-08-01 09:28:00,
2013-08-01 05:30:00,62.6,62.0,29.96,NW,311,1.0,4.0,98,0.00,CLR,,0.00,WeatherDisplay:10.37,2013-08-01 09:30:00,
2013-08-01 05:32:00,62.6,62.0,29.96,WNW,298,0.7,4.0,98,0.00,CLR,,0.00,WeatherDisplay:10.37,2013-08-01 09:32:00,
2013-08-01 05:34:00,62.6,62.0,29.97,WNW,303,1.7,3.5,98,0.00,CLR,,0.00,WeatherDisplay:10.37,2013-08-01 09:34:00,
2013-08-01 05:37:00,62.6,62.0,29.97,NW,319,0.0,3.5,98,0.00,CLR,,0.00,WeatherDisplay:10.37,2013-08-01 09:37:00,
2013-08-01 05:38:00,62.6,62.0,29.97,NW,319,0.0,1.1,98,0.00,CLR,,0.00,WeatherDisplay:10.37,2013-08-01 09:38:00,
2013-08-01 05:40:00,62.6,62.0,29.97,NNW,333,1.6,4.0,98,0.00,CLR,,0.00,WeatherDisplay:10.37,2013-08-01 09:40:00,
2013-08-01 05:43:00,62.6,62.0,29.97,WNW,301,1.3,3.5,98,0.00,CLR,,0.00,WeatherDisplay:10.37,2013-08-01 09:43:00,
2013-08-01 05:48:00,62.6,62.0,29.97,NNW,337,0.2,1.1,98,0.00,CLR,,0.00,WeatherDisplay:10.37,2013-08-01 09:48:00,
2013-08-01 05:50:00,62.7,62.1,29.97,NNW,337,1.0,2.3,98,0.00,CLR,,0.00,WeatherDisplay:10.37,2013-08-01 09:50:00,
2013-08-01 05:54:00,62.7,62.1,29.97,NNW,327,0.1,2.3,98,0.00,CLR,,0.00,WeatherDisplay:10.37,2013-08-01 09:54:00,
2013-08-01 05:55:00,62.7,62.1,29.97,NNW,327,2.2,4.6,98,0.00,CLR,,0.00,WeatherDisplay:10.37,2013-08-01 09:55:00,
2013-08-01 05:59:00,62.7,62.1,29.97,NW,321,0.1,2.3,98,0.00,CLR,,0.00,WeatherDisplay:10.37,2013-08-01 09:59:00,
2013-08-01 06:02:00,62.7,62.1,29.97,NNW,331,0.9,2.3,98,0.00,CLR,,0.00,WeatherDisplay:10.37,2013-08-01 10:02:00,
2013-08-01 06:05:00,62.7,62.1,29.97,NNW,330,0.0,2.0,98,0.00,CLR,,0.00,WeatherDisplay:10.37,2013-08-01 10:05:00,
2013-08-01 06:08:00,62.8,62.2,29.97,NW,323,0.0,2.3,98,0.00,CLR,,0.00,WeatherDisplay:10.37,2013-08-01 10:08:00,
2013-08-01 06:10:00,62.8,62.2,29.97,NW,323,0.3,1.1,98,0.00,CLR,,0.00,WeatherDisplay:10.37,2013-08-01 10:10:00,
2013-08-01 06:11:00,62.8,62.2,29.97,NW,321,0.4,2.0,98,0.00,CLR,,0.00,WeatherDisplay:10.37,2013-08-01 10:11:00,
2013-08-01 06:15:00,62.9,62.3,29.97,North,355,1.6,4.0,98,0.00,CLR,,0.00,WeatherDisplay:10.37,2013-08-01 10:15:00,
2013-08-01 06:17:00,62.9,62.3,29.97,NNW,327,3.0,6.0,98,0.00,CLR,,0.00,WeatherDisplay:10.37,2013-08-01 10:17:00,
2013-08-01 06:22:00,62.9,62.3,29.97,NNW,329,0.4,1.1,98,0.00,CLR,,0.00,WeatherDisplay:10.37,2013-08-01 10:22:00,
2013-08-01 06:27:00,63.0,62.4,29.97,NNW,330,0.0,2.3,98,0.00,CLR,,0.00,WeatherDisplay:10.37,2013-08-01 10:27:00,
2013-08-01 06:28:00,63.0,62.4,29.97,NNW,330,0.0,2.3,98,0.00,CLR,,0.00,WeatherDisplay:10.37,2013-08-01 10:28:00,
2013-08-01 06:33:00,63.1,62.5,29.98,North,351,0.0,3.5,98,0.00,CLR,,0.00,WeatherDisplay:10.37,2013-08-01 10:33:00,
2013-08-01 06:34:00,63.1,62.5,29.98,NW,325,0.4,2.0,98,0.00,CLR,,0.00,WeatherDisplay:10.37,2013-08-01 10:34:00,
2013-08-01 06:35:00,63.1,62.5,29.98,NNW,344,0.0,4.0,98,0.00,CLR,,0.00,WeatherDisplay:10.37,2013-08-01 10:35:00,
2013-08-01 06:40:00,63.0,62.5,29.98,NNW,344,0.0,3.0,98,0.00,CLR,,0.00,WeatherDisplay:10.37,2013-08-01 10:40:00,
2013-08-01 06:45:00,62.9,62.3,29.98,NNW,335,0.7,3.5,98,0.00,CLR,,0.00,WeatherDisplay:10.37,2013-08-01 10:45:00,
2013-08-01 06:46:00,62.9,62.3,29.98,NNW,335,0.1,3.5,98,0.00,CLR,,0.00,WeatherDisplay:10.37,2013-08-01 10:46:00,
2013-08-01 06:47:00,62.9,62.3,29.98,North,360,0.2,1.1,98,0.00,CLR,,0.00,WeatherDisplay:10.37,2013-08-01 10:47:00,
2013-08-01 06:51:00,62.9,62.3,29.98,North,360,0.0,0.0,98,0.00,CLR,,0.00,WeatherDisplay:10.37,2013-08-01 10:51:00,
2013-08-01 06:52:00,62.9,62.3,29.98,North,360,0.0,0.0,98,0.00,CLR,,0.00,WeatherDisplay:10.37,2013-08-01 10:52:00,
2013-08-01 06:55:00,62.9,62.3,29.98,North,360,0.0,0.0,98,0.00,CLR,,0.00,WeatherDisplay:10.37,2013-08-01 10:55:00,
2013-08-01 06:59:00,62.9,62.3,29.98,North,360,0.0,0.0,98,0.00,CLR,,0.00,WeatherDisplay:10.37,2013-08-01 10:59:00,
2013-08-01 07:01:00,62.9,62.3,29.98,North,360,0.0,0.0,98,0.00,CLR,,0.00,WeatherDisplay:10.37,2013-08-01 11:01:00,
2013-08-01 07:06:00,62.8,62.2,29.98,North,360,0.0,0.0,98,0.00,CLR,,0.00,WeatherDisplay:10.37,2013-08-01 11:06:00,
2013-08-01 07:07:00,62.8,62.2,29.98,North,360,0.0,0.0,98,0.00,CLR,,0.00,WeatherDisplay:10.37,2013-08-01 11:07:00,
2013-08-01 07:08:00,62.8,62.2,29.98,North,360,0.0,0.0,98,0.00,CLR,,0.00,WeatherDisplay:10.37,2013-08-01 11:08:00,
2013-08-01 07:12:00,62.7,62.1,29.98,North,360,0.0,0.0,98,0.00,CLR,,0.00,WeatherDisplay:10.37,2013-08-01 11:12:00,
2013-08-01 07:13:00,62.7,62.1,29.98,North,360,0.0,0.0,98,0.00,CLR,,0.00,WeatherDisplay:10.37,2013-08-01 11:13:00,
2013-08-01 07:17:00,62.5,61.9,29.98,North,360,0.1,1.1,98,0.00,CLR,,0.00,WeatherDisplay:10.37,2013-08-01 11:17:00,
2013-08-01 07:19:00,62.5,61.9,29.98,North,360,0.3,1.1,98,0.00,CLR,,0.00,WeatherDisplay:10.37,2013-08-01 11:19:00,
2013-08-01 07:21:00,62.5,61.9,29.98,North,360,0.0,1.1,98,0.00,CLR,,0.00,WeatherDisplay:10.37,2013-08-01 11:21:00,
2013-08-01 07:24:00,62.5,61.9,29.99,North,360,0.0,0.0,98,0.00,CLR,,0.00,WeatherDisplay:10.37,2013-08-01 11:24:00,
2013-08-01 07:27:00,62.6,62.0,29.99,North,360,0.0,0.0,98,0.00,CLR,,0.00,WeatherDisplay:10.37,2013-08-01 11:27:00,
2013-08-01 07:30:00,62.7,62.1,29.99,North,360,0.0,1.1,98,0.00,CLR,,0.00,WeatherDisplay:10.37,2013-08-01 11:30:00,
2013-08-01 07:32:00,62.7,62.1,29.98,NNW,341,0.1,1.1,98,0.00,CLR,,0.00,WeatherDisplay:10.37,2013-08-01 11:32:00,
2013-08-01 07:33:00,62.7,62.1,29.98,NW,325,0.7,2.0,98,0.00,CLR,,0.00,WeatherDisplay:10.37,2013-08-01 11:33:00,
2013-08-01 07:36:00,62.7,62.1,29.98,NW,325,0.1,1.1,98,0.00,CLR,,0.00,WeatherDisplay:10.37,2013-08-01 11:36:00,
2013-08-01 07:37:00,62.8,62.2,29.99,WNW,284,1.1,3.5,98,0.00,CLR,,0.00,WeatherDisplay:10.37,2013-08-01 11:37:00,
2013-08-01 07:38:00,62.8,62.2,29.98,WNW,284,0.0,3.5,98,0.00,CLR,,0.00,WeatherDisplay:10.37,2013-08-01 11:38:00,
2013-08-01 07:43:00,62.9,62.3,29.99,WNW,284,0.1,1.1,98,0.00,CLR,,0.00,WeatherDisplay:10.37,2013-08-01 11:43:00,
2013-08-01 07:45:00,63.0,62.4,29.99,WNW,284,0.0,1.0,98,0.00,CLR,,0.00,WeatherDisplay:10.37,2013-08-01 11:45:00,
2013-08-01 07:47:00,63.0,62.4,29.99,WNW,284,0.4,2.3,98,0.00,CLR,,0.00,WeatherDisplay:10.37,2013-08-01 11:47:00,
2013-08-01 07:48:00,63.0,62.4,29.99,WNW,284,0.0,2.3,98,0.00,CLR,,0.00,WeatherDisplay:10.37,2013-08-01 11:48:00,
2013-08-01 07:50:00,63.0,62.4,29.99,WNW,284,1.0,3.5,98,0.00,CLR,,0.00,WeatherDisplay:10.37,2013-08-01 11:50:00,
2013-08-01 07:53:00,63.0,62.4,29.99,WNW,289,0.1,1.1,98,0.00,CLR,,0.00,WeatherDisplay:10.37,2013-08-01 11:53:00,
2013-08-01 07:54:00,63.0,62.4,29.99,WNW,289,0.0,1.1,98,0.00,CLR,,0.00,WeatherDisplay:10.37,2013-08-01 11:54:00,
2013-08-01 07:58:00,63.0,62.4,29.99,West,274,2.6,5.0,98,0.00,CLR,,0.00,WeatherDisplay:10.37,2013-08-01 11:58:00,
2013-08-01 07:59:00,63.0,62.4,30.00,West,273,1.9,3.5,98,0.00,CLR,,0.00,WeatherDisplay:10.37,2013-08-01 11:59:00,
2013-08-01 08:00:00,63.0,62.4,30.00,West,273,0.8,3.5,98,0.00,CLR,,0.00,WeatherDisplay:10.37,2013-08-01 12:00:00,
2013-08-01 08:04:00,62.9,62.3,30.00,West,264,3.5,4.0,98,0.00,CLR,,0.00,WeatherDisplay:10.37,2013-08-01 12:04:00,
2013-08-01 08:05:00,62.9,62.3,30.00,West,271,0.0,4.6,98,0.00,CLR,,0.00,WeatherDisplay:10.37,2013-08-01 12:05:00,
2013-08-01 08:10:00,62.9,62.3,30.00,West,261,3.4,5.0,98,0.00,CLR,,0.00,WeatherDisplay:10.37,2013-08-01 12:10:00,
2013-08-01 08:15:00,63.0,62.4,30.00,West,261,1.7,3.5,98,0.00,CLR,,0.00,WeatherDisplay:10.37,2013-08-01 12:15:00,
2013-08-01 08:18:00,63.1,62.5,30.00,West,261,2.6,3.5,98,0.00,CLR,,0.00,WeatherDisplay:10.37,2013-08-01 12:18:00,
2013-08-01 08:19:00,63.1,62.5,30.00,West,277,1.3,3.5,98,0.00,CLR,,0.00,WeatherDisplay:10.37,2013-08-01 12:19:00,
2013-08-01 08:20:00,63.1,62.5,30.00,West,277,0.1,1.1,98,0.00,CLR,,0.00,WeatherDisplay:10.37,2013-08-01 12:20:00,
2013-08-01 08:24:00,63.1,62.5,30.00,West,263,2.0,3.5,98,0.00,CLR,,0.00,WeatherDisplay:10.37,2013-08-01 12:24:00,
2013-08-01 08:28:00,63.2,62.6,30.00,WNW,289,0.2,2.3,98,0.00,CLR,,0.00,WeatherDisplay:10.37,2013-08-01 12:28:00,
2013-08-01 08:29:00,63.2,62.6,30.00,WNW,289,0.6,3.5,98,0.00,CLR,,0.00,WeatherDisplay:10.37,2013-08-01 12:29:00,
2013-08-01 08:30:00,63.2,62.6,30.00,WNW,289,0.1,3.5,98,0.00,CLR,,0.00,WeatherDisplay:10.37,2013-08-01 12:30:00,
2013-08-01 08:33:00,63.3,62.7,30.00,WNW,293,0.5,3.5,98,0.00,CLR,,0.00,WeatherDisplay:10.37,2013-08-01 12:33:00,
2013-08-01 08:35:00,63.3,62.7,30.00,WNW,290,0.0,3.0,98,0.00,CLR,,0.00,WeatherDisplay:10.37,2013-08-01 12:35:00,
2013-08-01 08:36:00,63.4,62.8,30.00,WNW,293,0.5,1.1,98,0.00,CLR,,0.00,WeatherDisplay:10.37,2013-08-01 12:36:00,
2013-08-01 08:39:00,63.6,63.0,30.00,West,275,1.7,4.6,98,0.00,CLR,,0.00,WeatherDisplay:10.37,2013-08-01 12:39:00,
2013-08-01 08:41:00,63.8,63.2,30.00,West,272,1.0,4.6,98,0.00,CLR,,0.00,WeatherDisplay:10.37,2013-08-01 12:41:00,
2013-08-01 08:42:00,63.9,63.3,30.00,West,272,0.4,4.6,98,0.00,CLR,,0.00,WeatherDisplay:10.37,2013-08-01 12:42:00,
2013-08-01 08:44:00,64.2,63.6,30.00,West,279,0.6,1.1,98,0.00,CLR,,0.00,WeatherDisplay:10.37,2013-08-01 12:44:00,
2013-08-01 08:47:00,64.4,63.8,30.00,West,279,0.3,1.1,98,0.00,CLR,,0.00,WeatherDisplay:10.37,2013-08-01 12:47:00,
2013-08-01 08:50:00,64.3,63.7,30.00,WNW,289,5.0,6.0,98,0.00,CLR,,0.00,WeatherDisplay:10.37,2013-08-01 12:50:00,
2013-08-01 08:54:00,63.9,63.0,30.00,NW,308,0.9,6.9,97,0.00,CLR,,0.00,WeatherDisplay:10.37,2013-08-01 12:54:00,
2013-08-01 08:55:00,63.9,63.0,30.00,WNW,300,0.6,3.5,97,0.00,CLR,,0.00,WeatherDisplay:10.37,2013-08-01 12:55:00,
2013-08-01 08:59:00,63.9,63.0,30.00,WSW,255,2.2,3.5,97,0.00,CLR,,0.00,WeatherDisplay:10.37,2013-08-01 12:59:00,
2013-08-01 09:01:00,64.0,63.1,30.00,West,273,1.6,3.5,97,0.00,CLR,,0.00,WeatherDisplay:10.37,2013-08-01 13:01:00,
2013-08-01 09:02:00,64.0,63.1,30.00,West,272,2.9,5.0,97,0.00,CLR,,0.00,WeatherDisplay:10.37,2013-08-01 13:02:00,
2013-08-01 09:07:00,64.3,63.1,30.00,West,261,3.0,4.0,96,0.00,CLR,,0.00,WeatherDisplay:10.37,2013-08-01 13:07:00,
2013-08-01 09:12:00,64.5,63.3,29.99,West,261,0.7,2.3,96,0.00,CLR,,0.00,WeatherDisplay:10.37,2013-08-01 13:12:00,
2013-08-01 09:18:00,64.8,63.3,30.00,West,261,0.3,3.5,95,0.00,CLR,,0.00,WeatherDisplay:10.37,2013-08-01 13:18:00,
2013-08-01 09:19:00,64.9,63.4,30.00,West,262,0.0,1.1,95,0.00,CLR,,0.00,WeatherDisplay:10.37,2013-08-01 13:19:00,
2013-08-01 09:23:00,65.2,63.4,30.00,West,259,2.3,4.6,94,0.00,CLR,,0.00,WeatherDisplay:10.37,2013-08-01 13:23:00,
2013-08-01 09:25:00,65.2,63.5,30.00,West,260,3.0,5.0,94,0.00,CLR,,0.00,WeatherDisplay:10.37,2013-08-01 13:25:00,
2013-08-01 09:29:00,65.6,64.1,30.00,WSW,250,3.1,5.0,95,0.00,CLR,,0.00,WeatherDisplay:10.37,2013-08-01 13:29:00,
2013-08-01 09:30:00,65.7,64.2,30.00,WSW,250,2.8,4.6,95,0.00,CLR,,0.00,WeatherDisplay:10.37,2013-08-01 13:30:00,
2013-08-01 09:37:00,66.2,64.1,30.00,West,259,1.9,3.5,93,0.00,CLR,,0.00,WeatherDisplay:10.37,2013-08-01 13:37:00,
2013-08-01 09:38:00,66.2,64.1,30.00,West,259,1.2,3.5,93,0.00,CLR,,0.00,WeatherDisplay:10.37,2013-08-01 13:38:00,
2013-08-01 09:42:00,66.5,64.4,30.00,SW,220,1.9,4.6,93,0.00,CLR,,0.00,WeatherDisplay:10.37,2013-08-01 13:42:00,
2013-08-01 09:45:00,66.6,64.5,30.00,SW,232,2.0,5.0,93,0.00,CLR,,0.00,WeatherDisplay:10.37,2013-08-01 13:45:00,
2013-08-01 09:47:00,66.8,64.7,30.00,SW,236,0.9,3.5,93,0.00,CLR,,0.00,WeatherDisplay:10.37,2013-08-01 13:47:00,
2013-08-01 09:50:00,67.1,65.0,30.00,SW,227,3.3,5.0,93,0.00,CLR,,0.00,WeatherDisplay:10.37,2013-08-01 13:50:00,
2013-08-01 09:53:00,67.4,65.3,30.00,WSW,244,3.3,6.0,93,0.00,CLR,,0.00,WeatherDisplay:10.37,2013-08-01 13:53:00,
2013-08-01 09:55:00,67.4,65.0,30.00,WSW,238,2.7,3.5,92,0.00,CLR,,0.00,WeatherDisplay:10.37,2013-08-01 13:55:00,
2013-08-01 09:57:00,67.5,65.1,29.99,WSW,240,2.2,3.5,92,0.00,CLR,,0.00,WeatherDisplay:10.37,2013-08-01 13:57:00,
2013-08-01 09:58:00,67.7,65.3,29.99,WSW,240,2.3,4.0,92,0.00,CLR,,0.00,WeatherDisplay:10.37,2013-08-01 13:58:00,
2013-08-01 10:02:00,68.0,65.3,29.99,WNW,292,0.5,4.6,91,0.00,CLR,,0.00,WeatherDisplay:10.37,2013-08-01 14:02:00,
2013-08-01 10:05:00,68.3,65.6,29.99,West,268,3.7,5.0,91,0.00,CLR,,0.00,WeatherDisplay:10.37,2013-08-01 14:05:00,
2013-08-01 10:07:00,68.4,65.4,29.99,West,261,2.8,4.6,90,0.00,CLR,,0.00,WeatherDisplay:10.37,2013-08-01 14:07:00,
2013-08-01 10:08:00,68.5,65.4,29.99,West,268,1.8,5.0,90,0.00,CLR,,0.00,WeatherDisplay:10.37,2013-08-01 14:08:00,
2013-08-01 10:10:00,68.6,65.2,29.99,WSW,257,2.4,4.6,89,0.00,CLR,,0.00,WeatherDisplay:10.37,2013-08-01 14:10:00,
2013-08-01 10:14:00,69.1,65.7,29.99,WSW,241,4.8,7.0,89,0.00,CLR,,0.00,WeatherDisplay:10.37,2013-08-01 14:14:00,
2013-08-01 10:16:00,69.3,65.9,29.99,WSW,242,1.8,3.5,89,0.00,CLR,,0.00,WeatherDisplay:10.37,2013-08-01 14:16:00,
2013-08-01 10:22:00,69.8,66.1,29.99,West,277,0.9,5.0,88,0.00,CLR,,0.00,WeatherDisplay:10.37,2013-08-01 14:22:00,
2013-08-01 10:27:00,70.4,66.7,29.99,NNW,346,1.1,4.0,88,0.00,CLR,,0.00,WeatherDisplay:10.37,2013-08-01 14:27:00,
2013-08-01 10:28:00,70.6,66.2,29.99,North,350,3.1,5.8,86,0.00,CLR,,0.00,WeatherDisplay:10.37,2013-08-01 14:28:00,
2013-08-01 10:33:00,70.9,66.8,29.98,SW,235,0.6,3.5,87,0.00,CLR,,0.00,WeatherDisplay:10.37,2013-08-01 14:33:00,
2013-08-01 10:34:00,70.9,66.8,29.98,SW,235,1.2,3.0,87,0.00,CLR,,0.00,WeatherDisplay:10.37,2013-08-01 14:34:00,
2013-08-01 10:39:00,71.4,66.7,29.98,SW,235,1.6,3.5,85,0.00,CLR,,0.00,WeatherDisplay:10.37,2013-08-01 14:39:00,
2013-08-01 10:42:00,71.6,66.2,29.98,WSW,241,1.2,3.0,83,0.00,CLR,,0.00,WeatherDisplay:10.37,2013-08-01 14:42:00,
2013-08-01 10:45:00,71.7,66.9,29.98,West,261,4.4,5.8,85,0.00,CLR,,0.00,WeatherDisplay:10.37,2013-08-01 14:45:00,
2013-08-01 10:47:00,71.9,66.8,29.99,NW,325,2.1,3.5,84,0.00,CLR,,0.00,WeatherDisplay:10.37,2013-08-01 14:47:00,
2013-08-01 10:49:00,71.9,66.1,29.99,NW,325,0.6,3.5,82,0.00,CLR,,0.00,WeatherDisplay:10.37,2013-08-01 14:49:00,
2013-08-01 10:51:00,72.1,67.7,29.98,NW,321,0.3,1.1,86,0.00,CLR,,0.00,WeatherDisplay:10.37,2013-08-01 14:51:00,
2013-08-01 10:54:00,72.5,67.4,29.98,WNW,297,1.3,4.0,84,0.00,CLR,,0.00,WeatherDisplay:10.37,2013-08-01 14:54:00,
2013-08-01 10:58:00,73.0,67.2,29.98,NW,311,0.0,1.1,82,0.00,CLR,,0.00,WeatherDisplay:10.37,2013-08-01 14:58:00,
2013-08-01 11:00:00,73.1,67.6,29.98,WNW,292,1.0,4.0,83,0.00,CLR,,0.00,WeatherDisplay:10.37,2013-08-01 15:00:00,
2013-08-01 11:05:00,73.3,67.5,29.98,West,272,2.0,7.0,82,0.00,CLR,,0.00,WeatherDisplay:10.37,2013-08-01 15:05:00,
2013-08-01 11:06:00,73.3,67.5,29.98,WSW,253,5.3,6.9,82,0.00,CLR,,0.00,WeatherDisplay:10.37,2013-08-01 15:06:00,
2013-08-01 11:12:00,73.0,67.5,29.98,WNW,283,2.6,9.2,83,0.00,CLR,,0.00,WeatherDisplay:10.37,2013-08-01 15:12:00,
2013-08-01 11:13:00,73.1,67.3,29.98,NW,305,4.3,8.1,82,0.00,CLR,,0.00,WeatherDisplay:10.37,2013-08-01 15:13:00,
2013-08-01 11:17:00,73.9,68.1,29.98,West,270,2.0,3.5,82,0.00,CLR,,0.00,WeatherDisplay:10.37,2013-08-01 15:17:00,
2013-08-01 11:19:00,74.2,68.3,29.98,West,263,2.4,5.0,82,0.00,CLR,,0.00,WeatherDisplay:10.37,2013-08-01 15:19:00,
2013-08-01 11:22:00,74.3,68.1,29.98,NW,320,2.6,6.0,81,0.00,CLR,,0.00,WeatherDisplay:10.37,2013-08-01 15:22:00,
2013-08-01 11:24:00,74.2,67.3,29.98,West,267,3.6,5.0,79,0.00,CLR,,0.00,WeatherDisplay:10.37,2013-08-01 15:24:00,
2013-08-01 11:25:00,74.2,67.3,29.98,West,280,3.0,6.0,79,0.00,CLR,,0.00,WeatherDisplay:10.37,2013-08-01 15:25:00,
2013-08-01 11:27:00,74.1,67.9,29.98,West,277,2.2,3.5,81,0.00,CLR,,0.00,WeatherDisplay:10.37,2013-08-01 15:27:00,
2013-08-01 11:30:00,74.0,67.8,29.98,WSW,252,4.9,8.0,81,0.00,CLR,,0.00,WeatherDisplay:10.37,2013-08-01 15:30:00,
2013-08-01 11:32:00,73.9,67.7,29.98,West,268,1.5,8.1,81,0.00,CLR,,0.00,WeatherDisplay:10.37,2013-08-01 15:32:00,
2013-08-01 11:37:00,74.2,67.3,29.98,West,267,2.9,6.9,79,0.00,CLR,,0.00,WeatherDisplay:10.37,2013-08-01 15:37:00,
2013-08-01 11:38:00,74.3,68.1,29.98,West,259,5.2,9.0,81,0.00,CLR,,0.00,WeatherDisplay:10.37,2013-08-01 15:38:00,
2013-08-01 11:44:00,74.5,67.6,29.98,WNW,288,2.1,10.4,79,0.00,CLR,,0.00,WeatherDisplay:10.37,2013-08-01 15:44:00,
2013-08-01 11:50:00,74.5,67.9,29.98,West,259,5.0,10.0,80,0.00,CLR,,0.00,WeatherDisplay:10.37,2013-08-01 15:50:00,
2013-08-01 11:51:00,74.5,68.6,29.98,West,269,2.4,6.9,82,0.00,CLR,,0.00,WeatherDisplay:10.37,2013-08-01 15:51:00,
2013-08-01 11:55:00,74.8,68.2,29.98,West,259,5.0,7.0,80,0.00,CLR,,0.00,WeatherDisplay:10.37,2013-08-01 15:55:00,
2013-08-01 11:56:00,74.8,67.5,29.98,WSW,251,4.9,7.0,78,0.00,CLR,,0.00,WeatherDisplay:10.37,2013-08-01 15:56:00,
2013-08-01 11:57:00,74.8,68.2,29.98,WSW,243,2.4,9.0,80,0.00,CLR,,0.00,WeatherDisplay:10.37,2013-08-01 15:57:00,
2013-08-01 12:02:00,74.7,67.8,29.98,West,274,6.4,10.4,79,0.00,CLR,,0.00,WeatherDisplay:10.37,2013-08-01 16:02:00,
2013-08-01 12:03:00,74.7,67.8,29.98,West,279,6.0,10.4,79,0.00,CLR,,0.00,WeatherDisplay:10.37,2013-08-01 16:03:00,
2013-08-01 12:09:00,75.0,68.4,29.98,WSW,249,4.0,7.0,80,0.00,CLR,,0.00,WeatherDisplay:10.37,2013-08-01 16:09:00,
2013-08-01 12:14:00,75.0,69.1,29.98,West,265,4.7,8.1,82,0.00,CLR,,0.00,WeatherDisplay:10.37,2013-08-01 16:14:00,
2013-08-01 12:20:00,74.5,67.2,29.98,WNW,294,0.5,6.9,78,0.00,CLR,,0.00,WeatherDisplay:10.37,2013-08-01 16:20:00,
2013-08-01 12:22:00,74.1,66.8,29.98,West,281,2.2,6.0,78,0.00,CLR,,0.00,WeatherDisplay:10.37,2013-08-01 16:22:00,
2013-08-01 12:25:00,74.2,69.1,29.98,WNW,302,3.2,6.0,84,0.00,CLR,,0.00,WeatherDisplay:10.37,2013-08-01 16:25:00,
2013-08-01 12:28:00,74.7,68.5,29.98,West,269,2.5,4.6,81,0.00,CLR,,0.00,WeatherDisplay:10.37,2013-08-01 16:28:00,
2013-08-01 12:30:00,75.1,68.1,29.98,WSW,258,7.6,11.5,79,0.00,CLR,,0.00,WeatherDisplay:10.37,2013-08-01 16:30:00,
2013-08-01 12:31:00,75.1,68.5,29.98,West,267,8.2,11.5,80,0.00,CLR,,0.00,WeatherDisplay:10.37,2013-08-01 16:31:00,
2013-08-01 12:34:00,75.3,68.3,29.98,WSW,242,7.6,11.5,79,0.00,CLR,,0.00,WeatherDisplay:10.37,2013-08-01 16:34:00,
2013-08-01 12:36:00,75.2,67.9,29.98,West,262,6.8,9.2,78,0.00,CLR,,0.00,WeatherDisplay:10.37,2013-08-01 16:36:00,
2013-08-01 12:40:00,75.6,67.5,29.98,WNW,300,4.4,13.0,76,0.00,CLR,,0.00,WeatherDisplay:10.37,2013-08-01 16:40:00,
2013-08-01 12:42:00,76.0,67.5,29.98,WNW,284,5.8,12.7,75,0.00,CLR,,0.00,WeatherDisplay:10.37,2013-08-01 16:42:00,
2013-08-01 12:45:00,76.3,68.6,29.98,WNW,289,3.0,10.4,77,0.00,CLR,,0.00,WeatherDisplay:10.37,2013-08-01 16:45:00,
2013-08-01 12:46:00,76.3,67.8,29.98,WSW,254,6.8,12.0,75,0.00,CLR,,0.00,WeatherDisplay:10.37,2013-08-01 16:46:00,
2013-08-01 12:48:00,76.5,68.7,29.98,NW,319,5.0,11.5,77,0.00,CLR,,0.00,WeatherDisplay:10.37,2013-08-01 16:48:00,
2013-08-01 12:50:00,77.0,68.1,29.97,WSW,242,5.9,8.1,74,0.00,CLR,,0.00,WeatherDisplay:10.37,2013-08-01 16:50:00,
2013-08-01 12:52:00,77.1,67.8,29.97,WNW,289,8.3,13.0,73,0.00,CLR,,0.00,WeatherDisplay:10.37,2013-08-01 16:52:00,
2013-08-01 12:53:00,77.1,67.8,29.97,WNW,283,8.7,14.0,73,0.00,CLR,,0.00,WeatherDisplay:10.37,2013-08-01 16:53:00,
2013-08-01 12:59:00,77.2,67.5,29.97,WNW,292,1.8,5.8,72,0.00,CLR,,0.00,WeatherDisplay:10.37,2013-08-01 16:59:00,
2013-08-01 13:00:00,77.2,67.1,29.97,NW,323,1.4,4.6,71,0.00,CLR,,0.00,WeatherDisplay:10.37,2013-08-01 17:00:00,
2013-08-01 13:05:00,77.0,66.5,29.97,West,268,5.6,10.4,70,0.00,CLR,,0.00,WeatherDisplay:10.37,2013-08-01 17:05:00,
2013-08-01 13:06:00,77.2,66.2,29.97,NW,313,5.4,10.4,69,0.00,CLR,,0.00,WeatherDisplay:10.37,2013-08-01 17:06:00,
2013-08-01 13:10:00,77.5,66.5,29.97,West,271,4.2,9.2,69,0.00,CLR,,0.00,WeatherDisplay:10.37,2013-08-01 17:10:00,
2013-08-01 13:11:00,77.5,66.5,29.97,WNW,293,7.6,12.0,69,0.00,CLR,,0.00,WeatherDisplay:10.37,2013-08-01 17:11:00,
2013-08-01 13:12:00,77.6,67.4,29.97,WNW,302,1.9,9.2,71,0.00,CLR,,0.00,WeatherDisplay:10.37,2013-08-01 17:12:00,
2013-08-01 13:15:00,78.0,67.0,29.97,NW,326,2.2,5.8,69,0.00,CLR,,0.00,WeatherDisplay:10.37,2013-08-01 17:15:00,
2013-08-01 13:17:00,77.9,65.6,29.97,West,263,7.5,10.0,66,0.00,CLR,,0.00,WeatherDisplay:10.37,2013-08-01 17:17:00,
2013-08-01 13:22:00,76.9,66.0,29.97,NW,304,4.0,10.4,69,0.00,CLR,,0.00,WeatherDisplay:10.37,2013-08-01 17:22:00,
2013-08-01 13:23:00,76.7,65.3,29.97,NW,306,1.4,10.4,68,0.00,CLR,,0.00,WeatherDisplay:10.37,2013-08-01 17:23:00,
2013-08-01 13:25:00,76.8,67.5,29.97,West,280,2.9,7.0,73,0.00,CLR,,0.00,WeatherDisplay:10.37,2013-08-01 17:25:00,
2013-08-01 13:29:00,77.6,66.2,29.97,West,273,6.4,11.5,68,0.00,CLR,,0.00,WeatherDisplay:10.37,2013-08-01 17:29:00,
2013-08-01 13:31:00,77.7,65.9,29.97,North,350,4.1,11.5,67,0.00,CLR,,0.00,WeatherDisplay:10.37,2013-08-01 17:31:00,
2013-08-01 13:33:00,77.5,64.8,29.97,West,263,3.1,8.1,65,0.00,CLR,,0.00,WeatherDisplay:10.37,2013-08-01 17:33:00,
2013-08-01 13:35:00,77.3,65.9,29.97,WNW,285,4.4,13.0,68,0.00,CLR,,0.00,WeatherDisplay:10.37,2013-08-01 17:35:00,
2013-08-01 13:36:00,77.3,65.5,29.97,WNW,282,2.8,12.7,67,0.00,CLR,,0.00,WeatherDisplay:10.37,2013-08-01 17:36:00,
2013-08-01 13:38:00,77.5,65.7,29.97,West,277,4.9,9.2,67,0.00,CLR,,0.00,WeatherDisplay:10.37,2013-08-01 17:38:00,
2013-08-01 13:41:00,77.5,66.1,29.97,NW,324,8.6,13.0,68,0.00,CLR,,0.00,WeatherDisplay:10.37,2013-08-01 17:41:00,
2013-08-01 13:42:00,77.6,67.4,29.97,NW,313,3.7,12.7,71,0.00,CLR,,0.00,WeatherDisplay:10.37,2013-08-01 17:42:00,
2013-08-01 13:44:00,77.7,66.3,29.97,NW,311,2.6,6.9,68,0.00,CLR,,0.00,WeatherDisplay:10.37,2013-08-01 17:44:00,
2013-08-01 13:47:00,78.3,65.6,29.97,WNW,300,2.8,5.8,65,0.00,CLR,,0.00,WeatherDisplay:10.37,2013-08-01 17:47:00,
2013-08-01 13:48:00,78.4,65.2,29.97,NW,306,2.0,5.0,64,0.00,CLR,,0.00,WeatherDisplay:10.37,2013-08-01 17:48:00,
2013-08-01 13:49:00,78.5,64.9,29.97,NW,321,3.1,5.0,63,0.00,CLR,,0.00,WeatherDisplay:10.37,2013-08-01 17:49:00,
2013-08-01 13:53:00,78.9,64.3,29.97,NW,321,3.7,6.0,61,0.00,CLR,,0.00,WeatherDisplay:10.37,2013-08-01 17:53:00,
2013-08-01 13:55:00,78.9,64.3,29.97,NW,316,3.0,9.0,61,0.00,CLR,,0.00,WeatherDisplay:10.37,2013-08-01 17:55:00,
2013-08-01 13:58:00,78.9,64.3,29.97,NW,325,3.4,6.0,61,0.00,CLR,,0.00,WeatherDisplay:10.37,2013-08-01 17:58:00,
2013-08-01 13:59:00,78.9,64.3,29.97,NNW,340,3.1,5.8,61,0.00,CLR,,0.00,WeatherDisplay:10.37,2013-08-01 17:59:00,
2013-08-01 14:01:00,78.9,66.1,29.97,NW,315,3.0,7.0,65,0.00,CLR,,0.00,WeatherDisplay:10.37,2013-08-01 18:01:00,
2013-08-01 14:04:00,78.8,66.0,29.97,NW,318,1.5,3.5,65,0.00,CLR,,0.00,WeatherDisplay:10.37,2013-08-01 18:04:00,
2013-08-01 14:07:00,78.1,62.6,29.97,NNE,31,5.7,7.0,59,0.00,CLR,,0.00,WeatherDisplay:10.37,2013-08-01 18:07:00,
2013-08-01 14:09:00,77.4,63.8,29.97,NNW,342,3.5,9.2,63,0.00,CLR,,0.00,WeatherDisplay:10.37,2013-08-01 18:09:00,
2013-08-01 14:10:00,77.2,63.6,29.97,NW,304,1.9,9.2,63,0.00,CLR,,0.00,WeatherDisplay:10.37,2013-08-01 18:10:00,
2013-08-01 14:12:00,77.0,65.2,29.96,North,350,1.2,5.8,67,0.00,CLR,,0.00,WeatherDisplay:10.37,2013-08-01 18:12:00,
2013-08-01 14:15:00,77.7,65.4,29.96,NNW,336,1.5,3.5,66,0.00,CLR,,0.00,WeatherDisplay:10.37,2013-08-01 18:15:00,
2013-08-01 14:19:00,78.7,62.2,29.96,NNE,16,4.2,9.2,57,0.00,CLR,,0.00,WeatherDisplay:10.37,2013-08-01 18:19:00,
2013-08-01 14:22:00,79.3,64.2,29.96,NNW,343,2.0,9.2,60,0.00,CLR,,0.00,WeatherDisplay:10.37,2013-08-01 18:22:00,
2013-08-01 14:23:00,79.3,63.2,29.96,NW,314,3.3,5.0,58,0.00,CLR,,0.00,WeatherDisplay:10.37,2013-08-01 18:23:00,
2013-08-01 14:27:00,79.9,64.8,29.96,NNW,344,4.4,10.4,60,0.00,CLR,,0.00,WeatherDisplay:10.37,2013-08-01 18:27:00,
2013-08-01 14:28:00,79.9,63.3,29.96,NW,324,4.6,8.1,57,0.00,CLR,,0.00,WeatherDisplay:10.37,2013-08-01 18:28:00,
2013-08-01 14:33:00,79.7,62.6,29.96,NNE,15,3.2,7.0,56,0.00,CLR,,0.00,WeatherDisplay:10.37,2013-08-01 18:33:00,
2013-08-01 14:35:00,79.7,61.6,29.96,NNW,339,4.2,10.4,54,0.00,CLR,,0.00,WeatherDisplay:10.37,2013-08-01 18:35:00,
2013-08-01 14:38:00,79.8,60.6,29.97,WNW,285,3.9,11.5,52,0.00,CLR,,0.00,WeatherDisplay:10.37,2013-08-01 18:38:00,
2013-08-01 14:40:00,79.9,60.7,29.96,NW,321,4.0,10.4,52,0.00,CLR,,0.00,WeatherDisplay:10.37,2013-08-01 18:40:00,
2013-08-01 14:44:00,80.2,62.6,29.96,WNW,299,4.5,8.0,55,0.00,CLR,,0.00,WeatherDisplay:10.37,2013-08-01 18:44:00,
2013-08-01 14:45:00,80.2,60.4,29.96,NW,325,5.0,12.0,51,0.00,CLR,,0.00,WeatherDisplay:10.37,2013-08-01 18:45:00,
2013-08-01 14:47:00,80.3,60.0,29.96,NNW,329,5.3,10.4,50,0.00,CLR,,0.00,WeatherDisplay:10.37,2013-08-01 18:47:00,
2013-08-01 14:52:00,80.4,61.2,29.97,NNW,327,5.9,12.0,52,0.00,CLR,,0.00,WeatherDisplay:10.37,2013-08-01 18:52:00,
2013-08-01 14:53:00,80.3,61.1,29.96,WNW,288,4.3,11.5,52,0.00,CLR,,0.00,WeatherDisplay:10.37,2013-08-01 18:53:00,
2013-08-01 14:57:00,80.5,61.8,29.97,NNW,328,4.6,6.0,53,0.00,CLR,,0.00,WeatherDisplay:10.37,2013-08-01 18:57:00,
2013-08-01 14:58:00,80.5,61.3,29.97,WNW,298,4.3,5.8,52,0.00,CLR,,0.00,WeatherDisplay:10.37,2013-08-01 18:58:00,
2013-08-01 15:03:00,80.5,61.8,29.96,NW,321,3.4,6.9,53,0.00,CLR,,0.00,WeatherDisplay:10.37,2013-08-01 19:03:00,
2013-08-01 15:04:00,80.5,62.3,29.96,NW,316,2.9,6.9,54,0.00,CLR,,0.00,WeatherDisplay:10.37,2013-08-01 19:04:00,
2013-08-01 15:10:00,80.8,61.5,29.96,NW,321,3.0,9.0,52,0.00,CLR,,0.00,WeatherDisplay:10.37,2013-08-01 19:10:00,
2013-08-01 15:15:00,80.9,61.0,29.96,NW,315,5.0,8.0,51,0.00,CLR,,0.00,WeatherDisplay:10.37,2013-08-01 19:15:00,
2013-08-01 15:16:00,80.8,60.4,29.96,NW,309,5.2,9.2,50,0.00,CLR,,0.00,WeatherDisplay:10.37,2013-08-01 19:16:00,
2013-08-01 15:20:00,80.7,60.9,29.96,NW,311,3.0,9.0,51,0.00,CLR,,0.00,WeatherDisplay:10.37,2013-08-01 19:20:00,
2013-08-01 15:23:00,80.6,60.8,29.97,NNW,330,3.0,9.2,51,0.00,CLR,,0.00,WeatherDisplay:10.37,2013-08-01 19:23:00,
2013-08-01 15:25:00,80.7,60.9,29.96,NW,313,2.0,9.0,51,0.00,CLR,,0.00,WeatherDisplay:10.37,2013-08-01 19:25:00,
2013-08-01 15:30:00,80.8,59.9,29.97,NW,325,4.1,9.2,49,0.00,CLR,,0.00,WeatherDisplay:10.37,2013-08-01 19:30:00,
2013-08-01 15:33:00,80.5,59.6,29.97,NW,325,3.3,10.4,49,0.00,CLR,,0.00,WeatherDisplay:10.37,2013-08-01 19:33:00,
2013-08-01 15:34:00,80.4,59.5,29.97,NW,306,4.4,9.2,49,0.00,CLR,,0.00,WeatherDisplay:10.37,2013-08-01 19:34:00,
2013-08-01 15:35:00,80.4,60.6,29.97,WNW,294,4.2,8.0,51,0.00,CLR,,0.00,WeatherDisplay:10.37,2013-08-01 19:35:00,
2013-08-01 15:39:00,80.4,60.6,29.97,NW,316,2.2,4.6,51,0.00,CLR,,0.00,WeatherDisplay:10.37,2013-08-01 19:39:00,
2013-08-01 15:40:00,80.4,60.6,29.97,NW,309,0.7,3.5,51,0.00,CLR,,0.00,WeatherDisplay:10.37,2013-08-01 19:40:00,
2013-08-01 15:44:00,80.7,62.0,29.96,NW,311,3.0,6.0,53,0.00,CLR,,0.00,WeatherDisplay:10.37,2013-08-01 19:44:00,
2013-08-01 15:45:00,80.8,60.4,29.96,WNW,286,7.8,12.0,50,0.00,CLR,,0.00,WeatherDisplay:10.37,2013-08-01 19:45:00,
2013-08-01 15:49:00,80.8,61.0,29.96,NW,317,2.8,6.9,51,0.00,CLR,,0.00,WeatherDisplay:10.37,2013-08-01 19:49:00,
2013-08-01 15:53:00,80.9,59.9,29.96,WNW,294,5.6,9.0,49,0.00,CLR,,0.00,WeatherDisplay:10.37,2013-08-01 19:53:00,
2013-08-01 15:55:00,81.1,62.9,29.96,WNW,300,3.3,7.0,54,0.00,CLR,,0.00,WeatherDisplay:10.37,2013-08-01 19:55:00,
2013-08-01 15:58:00,81.3,60.3,29.96,WNW,289,4.3,9.0,49,0.00,CLR,,0.00,WeatherDisplay:10.37,2013-08-01 19:58:00,
2013-08-01 16:01:00,81.2,60.8,29.96,NNW,331,3.2,11.5,50,0.00,CLR,,0.00,WeatherDisplay:10.37,2013-08-01 20:01:00,
2013-08-01 16:04:00,80.6,59.7,29.96,NW,309,2.4,6.9,49,0.00,CLR,,0.00,WeatherDisplay:10.37,2013-08-01 20:04:00,
2013-08-01 16:07:00,80.0,59.1,29.96,NNW,330,2.7,6.9,49,0.00,CLR,,0.00,WeatherDisplay:10.37,2013-08-01 20:07:00,
2013-08-01 16:10:00,79.9,60.7,29.96,North,349,4.3,5.8,52,0.00,CLR,,0.00,WeatherDisplay:10.37,2013-08-01 20:10:00,
2013-08-01 16:13:00,80.1,60.3,29.96,NW,311,2.4,8.1,51,0.00,CLR,,0.00,WeatherDisplay:10.37,2013-08-01 20:13:00,
2013-08-01 16:15:00,80.3,60.0,29.96,WNW,296,2.9,5.0,50,0.00,CLR,,0.00,WeatherDisplay:10.37,2013-08-01 20:15:00,
2013-08-01 16:17:00,80.5,60.7,29.96,NW,314,3.8,8.1,51,0.00,CLR,,0.00,WeatherDisplay:10.37,2013-08-01 20:17:00,
2013-08-01 16:18:00,80.6,58.5,29.96,WNW,302,4.5,10.4,47,0.00,CLR,,0.00,WeatherDisplay:10.37,2013-08-01 20:18:00,
2013-08-01 16:20:00,80.6,59.7,29.96,NNW,329,4.5,8.1,49,0.00,CLR,,0.00,WeatherDisplay:10.37,2013-08-01 20:20:00,
2013-08-01 16:22:00,80.7,60.9,29.96,North,355,3.1,5.0,51,0.00,CLR,,0.00,WeatherDisplay:10.37,2013-08-01 20:22:00,
2013-08-01 16:24:00,80.6,60.2,29.96,NW,316,5.1,7.0,50,0.00,CLR,,0.00,WeatherDisplay:10.37,2013-08-01 20:24:00,
2013-08-01 16:25:00,80.6,60.2,29.96,WNW,303,4.6,6.9,50,0.00,CLR,,0.00,WeatherDisplay:10.37,2013-08-01 20:25:00,
2013-08-01 16:29:00,80.2,61.0,29.96,NW,326,2.0,6.9,52,0.00,CLR,,0.00,WeatherDisplay:10.37,2013-08-01 20:29:00,
2013-08-01 16:30:00,80.0,61.3,29.96,North,360,3.0,8.0,53,0.00,CLR,,0.00,WeatherDisplay:10.37,2013-08-01 20:30:00,
2013-08-01 16:34:00,79.3,60.7,29.96,NW,311,3.7,6.0,53,0.00,CLR,,0.00,WeatherDisplay:10.37,2013-08-01 20:34:00,
2013-08-01 16:36:00,79.1,58.9,29.96,North,5,5.5,7.0,50,0.00,CLR,,0.00,WeatherDisplay:10.37,2013-08-01 20:36:00,
2013-08-01 16:40:00,78.8,59.1,29.96,NNW,346,7.3,10.4,51,0.00,CLR,,0.00,WeatherDisplay:10.37,2013-08-01 20:40:00,
2013-08-01 16:41:00,78.7,60.7,29.96,NNE,16,6.4,10.4,54,0.00,CLR,,0.00,WeatherDisplay:10.37,2013-08-01 20:41:00,
2013-08-01 16:42:00,78.6,60.6,29.96,North,355,6.2,9.2,54,0.00,CLR,,0.00,WeatherDisplay:10.37,2013-08-01 20:42:00,
2013-08-01 16:47:00,78.6,58.4,29.96,North,355,5.8,10.4,50,0.00,CLR,,0.00,WeatherDisplay:10.37,2013-08-01 20:47:00,
2013-08-01 16:48:00,78.6,60.6,29.96,NNW,344,3.1,10.0,54,0.00,CLR,,0.00,WeatherDisplay:10.37,2013-08-01 20:48:00,
2013-08-01 16:49:00,78.6,60.6,29.96,NNW,333,3.4,10.4,54,0.00,CLR,,0.00,WeatherDisplay:10.37,2013-08-01 20:49:00,
2013-08-01 16:53:00,79.1,60.5,29.96,NW,319,3.5,5.8,53,0.00,CLR,,0.00,WeatherDisplay:10.37,2013-08-01 20:53:00,
2013-08-01 16:54:00,79.3,59.6,29.96,NNW,340,4.1,8.0,51,0.00,CLR,,0.00,WeatherDisplay:10.37,2013-08-01 20:54:00,
2013-08-01 16:58:00,79.8,59.5,29.97,NW,309,4.5,9.2,50,0.00,CLR,,0.00,WeatherDisplay:10.37,2013-08-01 20:58:00,
2013-08-01 16:59:00,79.8,58.9,29.96,NNW,348,5.8,9.2,49,0.00,CLR,,0.00,WeatherDisplay:10.37,2013-08-01 20:59:00,
2013-08-01 17:00:00,79.8,58.9,29.96,NW,325,6.0,9.0,49,0.00,CLR,,0.00,WeatherDisplay:10.37,2013-08-01 21:00:00,
2013-08-01 17:03:00,79.6,58.8,29.96,WNW,300,2.7,5.0,49,0.00,CLR,,0.00,WeatherDisplay:10.37,2013-08-01 21:03:00,
2013-08-01 17:04:00,79.6,59.3,29.96,NNW,333,1.9,4.0,50,0.00,CLR,,0.00,WeatherDisplay:10.37,2013-08-01 21:04:00,
2013-08-01 17:05:00,79.6,60.4,29.96,NNW,327,2.1,4.0,52,0.00,CLR,,0.00,WeatherDisplay:10.37,2013-08-01 21:05:00,
2013-08-01 17:06:00,79.6,59.9,29.96,North,10,3.1,8.1,51,0.00,CLR,,0.00,WeatherDisplay:10.37,2013-08-01 21:06:00,
2013-08-01 17:08:00,79.6,58.2,29.96,North,5,4.0,6.9,48,0.00,CLR,,0.00,WeatherDisplay:10.37,2013-08-01 21:08:00,
2013-08-01 17:09:00,79.6,59.3,29.96,NNW,336,3.4,6.9,50,0.00,CLR,,0.00,WeatherDisplay:10.37,2013-08-01 21:09:00,
2013-08-01 17:12:00,79.6,59.9,29.96,North,355,2.5,5.8,51,0.00,CLR,,0.00,WeatherDisplay:10.37,2013-08-01 21:12:00,
2013-08-01 17:13:00,79.7,58.8,29.96,NNW,345,1.9,9.2,49,0.00,CLR,,0.00,WeatherDisplay:10.37,2013-08-01 21:13:00,
2013-08-01 17:14:00,79.7,58.8,29.96,NW,304,2.0,3.5,49,0.00,CLR,,0.00,WeatherDisplay:10.37,2013-08-01 21:14:00,
2013-08-01 17:17:00,79.8,58.9,29.96,NW,324,3.9,6.9,49,0.00,CLR,,0.00,WeatherDisplay:10.37,2013-08-01 21:17:00,
2013-08-01 17:19:00,79.8,59.5,29.96,NNW,334,3.2,5.8,50,0.00,CLR,,0.00,WeatherDisplay:10.37,2013-08-01 21:19:00,
2013-08-01 17:23:00,79.5,59.2,29.96,NNW,331,4.0,8.1,50,0.00,CLR,,0.00,WeatherDisplay:10.37,2013-08-01 21:23:00,
2013-08-01 17:24:00,79.5,59.2,29.96,NW,324,2.0,8.1,50,0.00,CLR,,0.00,WeatherDisplay:10.37,2013-08-01 21:24:00,
2013-08-01 17:25:00,79.5,60.3,29.96,NW,320,2.2,5.8,52,0.00,CLR,,0.00,WeatherDisplay:10.37,2013-08-01 21:25:00,
2013-08-01 17:29:00,79.8,61.1,29.96,NNW,330,2.7,6.9,53,0.00,CLR,,0.00,WeatherDisplay:10.37,2013-08-01 21:29:00,
2013-08-01 17:30:00,79.8,58.9,29.96,NNE,24,2.7,4.6,49,0.00,CLR,,0.00,WeatherDisplay:10.37,2013-08-01 21:30:00,
2013-08-01 17:31:00,79.9,59.0,29.96,North,5,3.5,5.8,49,0.00,CLR,,0.00,WeatherDisplay:10.37,2013-08-01 21:31:00,
2013-08-01 17:35:00,79.8,57.7,29.96,NNW,333,3.0,7.0,47,0.00,CLR,,0.00,WeatherDisplay:10.37,2013-08-01 21:35:00,
2013-08-01 17:38:00,79.5,59.8,29.96,NNW,333,3.1,4.6,51,0.00,CLR,,0.00,WeatherDisplay:10.37,2013-08-01 21:38:00,
2013-08-01 17:40:00,79.4,59.1,29.96,WNW,297,4.1,7.0,50,0.00,CLR,,0.00,WeatherDisplay:10.37,2013-08-01 21:40:00,
2013-08-01 17:41:00,79.3,57.9,29.96,NNE,24,4.1,6.9,48,0.00,CLR,,0.00,WeatherDisplay:10.37,2013-08-01 21:41:00,
2013-08-01 17:43:00,79.2,58.4,29.96,NNE,26,5.6,7.0,49,0.00,CLR,,0.00,WeatherDisplay:10.37,2013-08-01 21:43:00,
2013-08-01 17:45:00,79.1,58.9,29.96,North,355,4.0,6.9,50,0.00,CLR,,0.00,WeatherDisplay:10.37,2013-08-01 21:45:00,
2013-08-01 17:46:00,79.0,58.2,29.95,North,5,4.6,6.0,49,0.00,CLR,,0.00,WeatherDisplay:10.37,2013-08-01 21:46:00,
2013-08-01 17:47:00,78.9,59.2,29.96,NNW,340,3.8,5.8,51,0.00,CLR,,0.00,WeatherDisplay:10.37,2013-08-01 21:47:00,
2013-08-01 17:49:00,78.9,58.7,29.95,NNW,346,3.4,6.0,50,0.00,CLR,,0.00,WeatherDisplay:10.37,2013-08-01 21:49:00,
2013-08-01 17:51:00,78.8,58.6,29.95,North,360,4.0,8.1,50,0.00,CLR,,0.00,WeatherDisplay:10.37,2013-08-01 21:51:00,
2013-08-01 17:53:00,78.8,59.1,29.96,NW,313,1.9,3.5,51,0.00,CLR,,0.00,WeatherDisplay:10.37,2013-08-01 21:53:00,
2013-08-01 17:54:00,78.8,59.1,29.96,NNW,334,2.8,5.8,51,0.00,CLR,,0.00,WeatherDisplay:10.37,2013-08-01 21:54:00,
2013-08-01 17:57:00,78.9,60.3,29.96,NW,321,3.7,4.6,53,0.00,CLR,,0.00,WeatherDisplay:10.37,2013-08-01 21:57:00,
2013-08-01 17:59:00,79.1,59.4,29.96,NW,323,2.3,5.8,51,0.00,CLR,,0.00,WeatherDisplay:10.37,2013-08-01 21:59:00,
2013-08-01 18:03:00,78.8,56.9,29.96,NNW,339,4.0,6.9,47,0.00,CLR,,0.00,WeatherDisplay:10.37,2013-08-01 22:03:00,
2013-08-01 18:04:00,78.6,57.8,29.96,NNW,339,4.3,7.0,49,0.00,CLR,,0.00,WeatherDisplay:10.37,2013-08-01 22:04:00,
2013-08-01 18:08:00,78.1,57.9,29.96,NW,318,3.1,4.0,50,0.00,CLR,,0.00,WeatherDisplay:10.37,2013-08-01 22:08:00,
2013-08-01 18:10:00,78.0,59.5,29.96,NNW,333,0.7,3.5,53,0.00,CLR,,0.00,WeatherDisplay:10.37,2013-08-01 22:10:00,
2013-08-01 18:11:00,77.8,59.3,29.96,NNW,333,0.7,2.0,53,0.00,CLR,,0.00,WeatherDisplay:10.37,2013-08-01 22:11:00,
2013-08-01 18:14:00,77.7,59.2,29.96,NW,325,1.7,3.5,53,0.00,CLR,,0.00,WeatherDisplay:10.37,2013-08-01 22:14:00,
2013-08-01 18:17:00,77.5,59.0,29.96,NW,320,0.3,3.5,53,0.00,CLR,,0.00,WeatherDisplay:10.37,2013-08-01 22:17:00,
2013-08-01 18:18:00,77.4,60.0,29.96,NNW,331,1.5,3.5,55,0.00,CLR,,0.00,WeatherDisplay:10.37,2013-08-01 22:18:00,
2013-08-01 18:19:00,77.5,59.0,29.95,North,360,2.4,5.0,53,0.00,CLR,,0.00,WeatherDisplay:10.37,2013-08-01 22:19:00,
2013-08-01 18:20:00,77.5,59.0,29.96,NNW,331,2.0,5.0,53,0.00,CLR,,0.00,WeatherDisplay:10.37,2013-08-01 22:20:00,
2013-08-01 18:23:00,77.8,59.8,29.95,NW,323,0.6,3.5,54,0.00,CLR,,0.00,WeatherDisplay:10.37,2013-08-01 22:23:00,
2013-08-01 18:24:00,78.0,60.0,29.95,NNW,333,2.0,6.0,54,0.00,CLR,,0.00,WeatherDisplay:10.37,2013-08-01 22:24:00,
2013-08-01 18:26:00,78.2,58.0,29.95,NNE,19,4.4,8.0,50,0.00,CLR,,0.00,WeatherDisplay:10.37,2013-08-01 22:26:00,
2013-08-01 18:28:00,78.2,57.5,29.95,NNE,17,6.0,9.2,49,0.00,CLR,,0.00,WeatherDisplay:10.37,2013-08-01 22:28:00,
2013-08-01 18:29:00,78.2,58.0,29.95,NW,323,2.9,6.9,50,0.00,CLR,,0.00,WeatherDisplay:10.37,2013-08-01 22:29:00,
2013-08-01 18:32:00,78.0,57.3,29.95,North,350,3.7,6.0,49,0.00,CLR,,0.00,WeatherDisplay:10.37,2013-08-01 22:32:00,
2013-08-01 18:34:00,77.9,57.8,29.95,NNW,348,4.2,6.9,50,0.00,CLR,,0.00,WeatherDisplay:10.37,2013-08-01 22:34:00,
2013-08-01 18:37:00,77.8,58.8,29.95,NW,317,2.7,6.9,52,0.00,CLR,,0.00,WeatherDisplay:10.37,2013-08-01 22:37:00,
2013-08-01 18:40:00,77.8,58.2,29.95,NNW,331,1.8,5.8,51,0.00,CLR,,0.00,WeatherDisplay:10.37,2013-08-01 22:40:00,
2013-08-01 18:41:00,77.8,59.3,29.95,NNW,332,1.8,3.5,53,0.00,CLR,,0.00,WeatherDisplay:10.37,2013-08-01 22:41:00,
2013-08-01 18:43:00,77.9,58.3,29.95,NNW,338,3.1,6.9,51,0.00,CLR,,0.00,WeatherDisplay:10.37,2013-08-01 22:43:00,
2013-08-01 18:45:00,77.9,58.9,29.95,NNW,327,1.1,3.5,52,0.00,CLR,,0.00,WeatherDisplay:10.37,2013-08-01 22:45:00,
2013-08-01 18:46:00,77.9,58.9,29.95,North,360,1.3,3.5,52,0.00,CLR,,0.00,WeatherDisplay:10.37,2013-08-01 22:46:00,
2013-08-01 18:50:00,77.9,57.8,29.95,NNW,347,4.0,7.0,50,0.00,CLR,,0.00,WeatherDisplay:10.37,2013-08-01 22:50:00,
2013-08-01 18:52:00,77.8,58.2,29.95,North,355,3.0,6.0,51,0.00,CLR,,0.00,WeatherDisplay:10.37,2013-08-01 22:52:00,
2013-08-01 18:53:00,77.7,58.1,29.95,NNW,333,3.7,6.9,51,0.00,CLR,,0.00,WeatherDisplay:10.37,2013-08-01 22:53:00,
2013-08-01 18:54:00,77.7,57.6,29.95,North,11,3.9,4.6,50,0.00,CLR,,0.00,WeatherDisplay:10.37,2013-08-01 22:54:00,
2013-08-01 18:55:00,77.6,56.9,29.95,NW,323,4.2,7.0,49,0.00,CLR,,0.00,WeatherDisplay:10.37,2013-08-01 22:55:00,
2013-08-01 18:58:00,77.5,57.9,29.95,North,355,2.3,3.5,51,0.00,CLR,,0.00,WeatherDisplay:10.37,2013-08-01 22:58:00,
2013-08-01 18:59:00,77.5,59.0,29.95,NNW,336,2.8,3.5,53,0.00,CLR,,0.00,WeatherDisplay:10.37,2013-08-01 22:59:00,
2013-08-01 19:00:00,77.4,57.9,29.95,NNW,335,3.1,3.5,51,0.00,CLR,,0.00,WeatherDisplay:10.37,2013-08-01 23:00:00,
2013-08-01 19:05:00,77.2,57.7,29.95,NNW,332,3.0,7.0,51,0.00,CLR,,0.00,WeatherDisplay:10.37,2013-08-01 23:05:00,
2013-08-01 19:06:00,77.1,57.6,29.95,North,11,2.4,6.9,51,0.00,CLR,,0.00,WeatherDisplay:10.37,2013-08-01 23:06:00,
2013-08-01 19:08:00,77.0,56.4,29.94,NW,323,3.5,6.0,49,0.00,CLR,,0.00,WeatherDisplay:10.37,2013-08-01 23:08:00,
2013-08-01 19:13:00,76.9,56.8,29.94,NW,325,3.3,6.0,50,0.00,CLR,,0.00,WeatherDisplay:10.37,2013-08-01 23:13:00,
2013-08-01 19:14:00,76.9,57.4,29.94,NNW,348,1.7,5.8,51,0.00,CLR,,0.00,WeatherDisplay:10.37,2013-08-01 23:14:00,
2013-08-01 19:18:00,76.9,58.5,29.94,NNE,12,1.7,5.0,53,0.00,CLR,,0.00,WeatherDisplay:10.37,2013-08-01 23:18:00,
2013-08-01 19:19:00,76.8,57.3,29.94,North,350,3.4,4.6,51,0.00,CLR,,0.00,WeatherDisplay:10.37,2013-08-01 23:19:00,
2013-08-01 19:24:00,76.7,57.7,29.94,NNW,342,2.7,4.0,52,0.00,CLR,,0.00,WeatherDisplay:10.37,2013-08-01 23:24:00,
2013-08-01 19:30:00,76.5,58.1,29.94,NNW,336,1.9,2.3,53,0.00,CLR,,0.00,WeatherDisplay:10.37,2013-08-01 23:30:00,
2013-08-01 19:31:00,76.4,58.0,29.95,NNW,340,2.0,4.0,53,0.00,CLR,,0.00,WeatherDisplay:10.37,2013-08-01 23:31:00,
2013-08-01 19:35:00,76.3,57.4,29.95,NNW,342,2.4,3.5,52,0.00,CLR,,0.00,WeatherDisplay:10.37,2013-08-01 23:35:00,
2013-08-01 19:36:00,76.3,57.9,29.95,NNW,344,1.9,3.5,53,0.00,CLR,,0.00,WeatherDisplay:10.37,2013-08-01 23:36:00,
2013-08-01 19:41:00,75.7,57.9,29.95,NNE,17,1.9,4.0,54,0.00,CLR,,0.00,WeatherDisplay:10.37,2013-08-01 23:41:00,
2013-08-01 19:42:00,75.7,57.9,29.95,NNE,17,1.9,4.0,54,0.00,CLR,,0.00,WeatherDisplay:10.37,2013-08-01 23:42:00,
2013-08-01 19:43:00,75.5,58.7,29.94,North,355,2.1,3.5,56,0.00,CLR,,0.00,WeatherDisplay:10.37,2013-08-01 23:43:00,
2013-08-01 19:47:00,75.0,58.7,29.94,North,360,2.9,4.0,57,0.00,CLR,,0.00,WeatherDisplay:10.37,2013-08-01 23:47:00,
2013-08-01 19:48:00,74.9,58.6,29.94,North,360,2.7,3.5,57,0.00,CLR,,0.00,WeatherDisplay:10.37,2013-08-01 23:48:00,
2013-08-01 19:52:00,74.2,58.9,29.94,North,5,2.4,3.5,59,0.00,CLR,,0.00,WeatherDisplay:10.37,2013-08-01 23:52:00,
2013-08-01 19:54:00,74.0,59.2,29.94,NNE,15,2.3,3.5,60,0.00,CLR,,0.00,WeatherDisplay:10.37,2013-08-01 23:54:00,
2013-08-01 19:58:00,73.5,59.2,29.94,North,5,1.9,3.5,61,0.00,CLR,,0.00,WeatherDisplay:10.37,2013-08-01 23:58:00,
2013-08-01 19:59:00,73.4,59.1,29.95,NNW,348,1.5,3.5,61,0.00,CLR,,0.00,WeatherDisplay:10.37,2013-08-01 23:59:00,
2013-08-01 20:00:00,73.3,59.0,29.95,North,5,2.2,3.5,61,0.00,CLR,,0.00,WeatherDisplay:10.37,2013-08-02 00:00:00,
2013-08-01 20:04:00,72.9,58.7,29.95,North,5,0.7,2.3,61,0.00,CLR,,0.00,WeatherDisplay:10.37,2013-08-02 00:04:00,
2013-08-01 20:05:00,72.9,58.7,29.95,North,350,0.7,2.3,61,0.00,CLR,,0.00,WeatherDisplay:10.37,2013-08-02 00:05:00,
2013-08-01 20:07:00,72.8,58.6,29.95,North,10,2.1,3.5,61,0.00,CLR,,0.00,WeatherDisplay:10.37,2013-08-02 00:07:00,
2013-08-01 20:10:00,72.5,58.7,29.95,North,11,2.2,3.5,62,0.00,CLR,,0.00,WeatherDisplay:10.37,2013-08-02 00:10:00,
2013-08-01 20:12:00,72.3,58.5,29.94,North,360,2.3,3.5,62,0.00,CLR,,0.00,WeatherDisplay:10.37,2013-08-02 00:12:00,
2013-08-01 20:13:00,72.2,58.5,29.95,North,360,1.6,3.5,62,0.00,CLR,,0.00,WeatherDisplay:10.37,2013-08-02 00:13:00,
2013-08-01 20:16:00,72.1,58.8,29.95,North,355,1.2,2.3,63,0.00,CLR,,0.00,WeatherDisplay:10.37,2013-08-02 00:16:00,
2013-08-01 20:18:00,72.0,58.7,29.95,North,360,0.3,2.3,63,0.00,CLR,,0.00,WeatherDisplay:10.37,2013-08-02 00:18:00,
2013-08-01 20:19:00,72.0,58.7,29.95,North,360,0.3,2.3,63,0.00,CLR,,0.00,WeatherDisplay:10.37,2013-08-02 00:19:00,
2013-08-01 20:21:00,71.8,59.0,29.95,North,9,1.2,2.3,64,0.00,CLR,,0.00,WeatherDisplay:10.37,2013-08-02 00:21:00,
2013-08-01 20:23:00,71.7,58.9,29.95,North,5,1.2,2.3,64,0.00,CLR,,0.00,WeatherDisplay:10.37,2013-08-02 00:23:00,
2013-08-01 20:24:00,71.7,58.9,29.95,North,5,0.9,2.3,64,0.00,CLR,,0.00,WeatherDisplay:10.37,2013-08-02 00:24:00,
2013-08-01 20:27:00,71.5,59.1,29.95,North,5,0.4,1.1,65,0.00,CLR,,0.00,WeatherDisplay:10.37,2013-08-02 00:27:00,
2013-08-01 20:29:00,71.4,59.0,29.95,North,5,0.6,2.3,65,0.00,CLR,,0.00,WeatherDisplay:10.37,2013-08-02 00:29:00,
2013-08-01 20:30:00,71.4,59.0,29.95,North,5,0.4,2.3,65,0.00,CLR,,0.00,WeatherDisplay:10.37,2013-08-02 00:30:00,
2013-08-01 20:33:00,71.2,60.5,29.95,North,5,0.0,0.0,69,0.00,CLR,,0.00,WeatherDisplay:10.37,2013-08-02 00:33:00,
2013-08-01 20:34:00,71.1,60.4,29.95,North,5,0.0,0.0,69,0.00,CLR,,0.00,WeatherDisplay:10.37,2013-08-02 00:34:00,
2013-08-01 20:35:00,71.1,60.8,29.95,North,5,0.1,1.0,70,0.00,CLR,,0.00,WeatherDisplay:10.37,2013-08-02 00:35:00,
2013-08-01 20:39:00,70.6,59.5,29.95,North,5,0.2,1.1,68,0.00,CLR,,0.00,WeatherDisplay:10.37,2013-08-02 00:39:00,
2013-08-01 20:41:00,70.4,59.7,29.95,North,5,0.1,1.1,69,0.00,CLR,,0.00,WeatherDisplay:10.37,2013-08-02 00:41:00,
2013-08-01 20:45:00,70.2,60.7,29.95,North,5,0.0,1.0,72,0.00,CLR,,0.00,WeatherDisplay:10.37,2013-08-02 00:45:00,
2013-08-01 20:47:00,69.9,60.5,29.96,North,5,0.0,0.0,72,0.00,CLR,,0.00,WeatherDisplay:10.37,2013-08-02 00:47:00,
2013-08-01 20:50:00,69.7,60.7,29.96,North,5,0.0,0.0,73,0.00,CLR,,0.00,WeatherDisplay:10.37,2013-08-02 00:50:00,
2013-08-01 20:53:00,69.4,60.4,29.96,North,5,0.0,0.0,73,0.00,CLR,,0.00,WeatherDisplay:10.37,2013-08-02 00:53:00,
2013-08-01 20:55:00,69.2,60.2,29.96,North,5,0.0,0.0,73,0.00,CLR,,0.00,WeatherDisplay:10.37,2013-08-02 00:55:00,
2013-08-01 20:58:00,68.8,60.2,29.96,North,5,0.0,0.0,74,0.00,CLR,,0.00,WeatherDisplay:10.37,2013-08-02 00:58:00,
2013-08-01 20:59:00,68.8,60.2,29.96,North,5,0.0,0.0,74,0.00,CLR,,0.00,WeatherDisplay:10.37,2013-08-02 00:59:00,
2013-08-01 21:01:00,68.5,59.9,29.96,North,5,0.0,0.0,74,0.00,CLR,,0.00,WeatherDisplay:10.37,2013-08-02 01:01:00,
2013-08-01 21:02:00,68.3,59.7,29.96,North,5,0.0,0.0,74,0.00,CLR,,0.00,WeatherDisplay:10.37,2013-08-02 01:02:00,
2013-08-01 21:03:00,68.2,59.6,29.96,North,5,0.0,0.0,74,0.00,CLR,,0.00,WeatherDisplay:10.37,2013-08-02 01:03:00,
2013-08-01 21:04:00,68.0,59.4,29.96,North,5,0.0,0.0,74,0.00,CLR,,0.00,WeatherDisplay:10.37,2013-08-02 01:04:00,
2013-08-01 21:06:00,67.7,59.5,29.96,North,5,0.0,0.0,75,0.00,CLR,,0.00,WeatherDisplay:10.37,2013-08-02 01:06:00,
2013-08-01 21:08:00,67.5,59.3,29.96,North,5,0.0,0.0,75,0.00,CLR,,0.00,WeatherDisplay:10.37,2013-08-02 01:08:00,
2013-08-01 21:10:00,67.2,59.4,29.96,North,5,0.0,0.0,76,0.00,CLR,,0.00,WeatherDisplay:10.37,2013-08-02 01:10:00,
2013-08-01 21:11:00,67.1,59.6,29.96,North,5,0.0,0.0,77,0.00,CLR,,0.00,WeatherDisplay:10.37,2013-08-02 01:11:00,
2013-08-01 21:12:00,67.0,59.5,29.96,North,5,0.0,0.0,77,0.00,CLR,,0.00,WeatherDisplay:10.37,2013-08-02 01:12:00,
2013-08-01 21:14:00,66.7,59.6,29.96,North,5,0.0,0.0,78,0.00,CLR,,0.00,WeatherDisplay:10.37,2013-08-02 01:14:00,
2013-08-01 21:16:00,66.6,59.5,29.96,North,5,0.0,0.0,78,0.00,CLR,,0.00,WeatherDisplay:10.37,2013-08-02 01:16:00,
2013-08-01 21:17:00,66.5,59.4,29.96,North,5,0.0,0.0,78,0.00,CLR,,0.00,WeatherDisplay:10.37,2013-08-02 01:17:00,
2013-08-01 21:20:00,66.2,59.5,29.96,North,5,0.0,0.0,79,0.00,CLR,,0.00,WeatherDisplay:10.37,2013-08-02 01:20:00,
2013-08-01 21:21:00,66.1,59.4,29.96,North,5,0.0,0.0,79,0.00,CLR,,0.00,WeatherDisplay:10.37,2013-08-02 01:21:00,
2013-08-01 21:23:00,66.0,59.3,29.96,North,5,0.0,0.0,79,0.00,CLR,,0.00,WeatherDisplay:10.37,2013-08-02 01:23:00,
2013-08-01 21:26:00,65.8,59.1,29.96,North,5,0.0,0.0,79,0.00,CLR,,0.00,WeatherDisplay:10.37,2013-08-02 01:26:00,
2013-08-01 21:27:00,65.7,59.4,29.96,North,5,0.0,0.0,80,0.00,CLR,,0.00,WeatherDisplay:10.37,2013-08-02 01:27:00,
2013-08-01 21:28:00,65.7,59.7,29.96,North,5,0.0,0.0,81,0.00,CLR,,0.00,WeatherDisplay:10.37,2013-08-02 01:28:00,
2013-08-01 21:29:00,65.6,59.6,29.96,North,5,0.0,0.0,81,0.00,CLR,,0.00,WeatherDisplay:10.37,2013-08-02 01:29:00,
2013-08-01 21:32:00,65.4,59.4,29.96,North,5,0.0,0.0,81,0.00,CLR,,0.00,WeatherDisplay:10.37,2013-08-02 01:32:00,
2013-08-01 21:33:00,65.4,59.8,29.97,North,5,0.0,0.0,82,0.00,CLR,,0.00,WeatherDisplay:10.37,2013-08-02 01:33:00,
2013-08-01 21:34:00,65.3,59.7,29.97,North,5,0.0,0.0,82,0.00,CLR,,0.00,WeatherDisplay:10.37,2013-08-02 01:34:00,
2013-08-01 21:38:00,65.0,59.4,29.97,North,5,0.0,0.0,82,0.00,CLR,,0.00,WeatherDisplay:10.37,2013-08-02 01:38:00,
2013-08-01 21:39:00,64.9,59.6,29.97,North,5,0.0,0.0,83,0.00,CLR,,0.00,WeatherDisplay:10.37,2013-08-02 01:39:00,
2013-08-01 21:40:00,64.9,59.6,29.97,North,5,0.0,0.0,83,0.00,CLR,,0.00,WeatherDisplay:10.37,2013-08-02 01:40:00,
2013-08-01 21:44:00,64.7,59.4,29.97,North,5,0.0,0.0,83,0.00,CLR,,0.00,WeatherDisplay:10.37,2013-08-02 01:44:00,
2013-08-01 21:45:00,64.6,59.3,29.97,North,5,0.0,0.0,83,0.00,CLR,,0.00,WeatherDisplay:10.37,2013-08-02 01:45:00,
2013-08-01 21:49:00,64.4,59.5,29.97,North,5,0.0,0.0,84,0.00,CLR,,0.00,WeatherDisplay:10.37,2013-08-02 01:49:00,
2013-08-01 21:50:00,64.4,59.5,29.97,North,5,0.0,0.0,84,0.00,CLR,,0.00,WeatherDisplay:10.37,2013-08-02 01:50:00,
2013-08-01 21:55:00,64.1,59.5,29.97,North,5,0.0,0.0,85,0.00,CLR,,0.00,WeatherDisplay:10.37,2013-08-02 01:55:00,
2013-08-01 21:57:00,64.0,59.4,29.97,North,5,0.0,0.0,85,0.00,CLR,,0.00,WeatherDisplay:10.37,2013-08-02 01:57:00,
2013-08-01 22:01:00,63.8,58.9,29.97,North,5,0.0,0.0,84,0.00,CLR,,0.00,WeatherDisplay:10.37,2013-08-02 02:01:00,
2013-08-01 22:02:00,63.8,58.9,29.97,North,5,0.0,0.0,84,0.00,CLR,,0.00,WeatherDisplay:10.37,2013-08-02 02:02:00,
2013-08-01 22:04:00,63.8,59.2,29.97,North,5,0.0,0.0,85,0.00,CLR,,0.00,WeatherDisplay:10.37,2013-08-02 02:04:00,
2013-08-01 22:07:00,63.8,59.2,29.97,North,5,0.0,0.0,85,0.00,CLR,,0.00,WeatherDisplay:10.37,2013-08-02 02:07:00,
2013-08-01 22:08:00,63.8,59.2,29.97,North,5,0.0,0.0,85,0.00,CLR,,0.00,WeatherDisplay:10.37,2013-08-02 02:08:00,
2013-08-01 22:09:00,63.8,59.2,29.97,North,5,0.0,0.0,85,0.00,CLR,,0.00,WeatherDisplay:10.37,2013-08-02 02:09:00,
2013-08-01 22:13:00,63.8,59.5,29.97,North,5,0.0,0.0,86,0.00,CLR,,0.00,WeatherDisplay:10.37,2013-08-02 02:13:00,
2013-08-01 22:14:00,63.8,59.5,29.97,North,5,0.0,0.0,86,0.00,CLR,,0.00,WeatherDisplay:10.37,2013-08-02 02:14:00,
2013-08-01 22:18:00,63.7,59.1,29.97,North,5,0.0,0.0,85,0.00,CLR,,0.00,WeatherDisplay:10.37,2013-08-02 02:18:00,
2013-08-01 22:20:00,63.7,59.1,29.97,North,5,0.0,0.0,85,0.00,CLR,,0.00,WeatherDisplay:10.37,2013-08-02 02:20:00,
2013-08-01 22:21:00,63.7,59.1,29.97,North,5,0.0,0.0,85,0.00,CLR,,0.00,WeatherDisplay:10.37,2013-08-02 02:21:00,
2013-08-01 22:22:00,63.7,59.1,29.97,North,5,0.0,0.0,85,0.00,CLR,,0.00,WeatherDisplay:10.37,2013-08-02 02:22:00,
2013-08-01 22:24:00,63.6,58.7,29.97,North,5,0.0,0.0,84,0.00,CLR,,0.00,WeatherDisplay:10.37,2013-08-02 02:24:00,
2013-08-01 22:25:00,63.6,58.7,29.97,North,5,0.0,0.0,84,0.00,CLR,,0.00,WeatherDisplay:10.37,2013-08-02 02:25:00,
2013-08-01 22:26:00,63.6,58.7,29.97,North,5,0.0,0.0,84,0.00,CLR,,0.00,WeatherDisplay:10.37,2013-08-02 02:26:00,
2013-08-01 22:28:00,63.5,58.6,29.97,North,5,0.0,0.0,84,0.00,CLR,,0.00,WeatherDisplay:10.37,2013-08-02 02:28:00,
2013-08-01 22:29:00,63.5,58.2,29.97,North,5,0.0,0.0,83,0.00,CLR,,0.00,WeatherDisplay:10.37,2013-08-02 02:29:00,
2013-08-01 22:33:00,63.4,58.8,29.97,North,5,0.0,0.0,85,0.00,CLR,,0.00,WeatherDisplay:10.37,2013-08-02 02:33:00,
2013-08-01 22:34:00,63.4,59.1,29.97,North,5,0.0,0.0,86,0.00,CLR,,0.00,WeatherDisplay:10.37,2013-08-02 02:34:00,
2013-08-01 22:35:00,63.4,59.1,29.97,North,5,0.0,0.0,86,0.00,CLR,,0.00,WeatherDisplay:10.37,2013-08-02 02:35:00,
2013-08-01 22:38:00,63.2,59.3,29.97,North,5,0.0,0.0,87,0.00,CLR,,0.00,WeatherDisplay:10.37,2013-08-02 02:38:00,
2013-08-01 22:39:00,63.2,59.3,29.97,North,5,0.0,0.0,87,0.00,CLR,,0.00,WeatherDisplay:10.37,2013-08-02 02:39:00,
2013-08-01 22:40:00,63.2,59.3,29.97,North,5,0.0,0.0,87,0.00,CLR,,0.00,WeatherDisplay:10.37,2013-08-02 02:40:00,
2013-08-01 22:44:00,62.9,59.3,29.97,North,5,0.0,0.0,88,0.00,CLR,,0.00,WeatherDisplay:10.37,2013-08-02 02:44:00,
2013-08-01 22:45:00,63.0,59.4,29.97,North,5,0.0,0.0,88,0.00,CLR,,0.00,WeatherDisplay:10.37,2013-08-02 02:45:00,
2013-08-01 22:49:00,62.7,59.1,29.97,North,5,0.0,0.0,88,0.00,CLR,,0.00,WeatherDisplay:10.37,2013-08-02 02:49:00,
2013-08-01 22:50:00,62.7,59.1,29.97,North,5,0.0,0.0,88,0.00,CLR,,0.00,WeatherDisplay:10.37,2013-08-02 02:50:00,
2013-08-01 22:51:00,62.6,59.0,29.97,North,5,0.0,0.0,88,0.00,CLR,,0.00,WeatherDisplay:10.37,2013-08-02 02:51:00,
2013-08-01 22:54:00,62.4,58.8,29.97,North,5,0.0,0.0,88,0.00,CLR,,0.00,WeatherDisplay:10.37,2013-08-02 02:54:00,
2013-08-01 22:55:00,62.4,58.8,29.97,North,5,0.0,0.0,88,0.00,CLR,,0.00,WeatherDisplay:10.37,2013-08-02 02:55:00,
2013-08-01 22:56:00,62.4,58.8,29.97,North,5,0.0,0.0,88,0.00,CLR,,0.00,WeatherDisplay:10.37,2013-08-02 02:56:00,
2013-08-01 22:59:00,62.2,58.6,29.98,North,5,0.0,0.0,88,0.00,CLR,,0.00,WeatherDisplay:10.37,2013-08-02 02:59:00,
2013-08-01 23:01:00,62.0,58.4,29.98,North,5,0.0,0.0,88,0.00,CLR,,0.00,WeatherDisplay:10.37,2013-08-02 03:01:00,
2013-08-01 23:03:00,61.9,58.6,29.98,North,5,0.0,0.0,89,0.00,CLR,,0.00,WeatherDisplay:10.37,2013-08-02 03:03:00,
2013-08-01 23:05:00,61.8,58.5,29.97,North,5,0.0,0.0,89,0.00,CLR,,0.00,WeatherDisplay:10.37,2013-08-02 03:05:00,
2013-08-01 23:06:00,61.8,58.5,29.97,North,5,0.0,0.0,89,0.00,CLR,,0.00,WeatherDisplay:10.37,2013-08-02 03:06:00,
2013-08-01 23:09:00,61.7,58.4,29.98,North,5,0.0,0.0,89,0.00,CLR,,0.00,WeatherDisplay:10.37,2013-08-02 03:09:00,
2013-08-01 23:11:00,61.6,58.0,29.98,North,5,0.0,0.0,88,0.00,CLR,,0.00,WeatherDisplay:10.37,2013-08-02 03:11:00,
2013-08-01 23:12:00,61.5,57.9,29.97,North,5,0.0,0.0,88,0.00,CLR,,0.00,WeatherDisplay:10.37,2013-08-02 03:12:00,
2013-08-01 23:14:00,61.4,57.8,29.97,North,5,0.0,0.0,88,0.00,CLR,,0.00,WeatherDisplay:10.37,2013-08-02 03:14:00,
2013-08-01 23:16:00,61.3,57.7,29.97,North,5,0.0,0.0,88,0.00,CLR,,0.00,WeatherDisplay:10.37,2013-08-02 03:16:00,
2013-08-01 23:18:00,61.3,57.7,29.97,North,5,0.0,0.0,88,0.00,CLR,,0.00,WeatherDisplay:10.37,2013-08-02 03:18:00,
2013-08-01 23:20:00,61.2,57.6,29.97,North,5,0.0,0.0,88,0.00,CLR,,0.00,WeatherDisplay:10.37,2013-08-02 03:20:00,
2013-08-01 23:22:00,61.1,57.5,29.97,North,5,0.0,0.0,88,0.00,CLR,,0.00,WeatherDisplay:10.37,2013-08-02 03:22:00,
2013-08-01 23:23:00,61.1,57.5,29.98,North,5,0.0,0.0,88,0.00,CLR,,0.00,WeatherDisplay:10.37,2013-08-02 03:23:00,
2013-08-01 23:25:00,61.0,57.4,29.98,North,5,0.0,0.0,88,0.00,CLR,,0.00,WeatherDisplay:10.37,2013-08-02 03:25:00,
2013-08-01 23:28:00,60.9,57.3,29.98,North,5,0.0,0.0,88,0.00,CLR,,0.00,WeatherDisplay:10.37,2013-08-02 03:28:00,
2013-08-01 23:29:00,60.9,57.3,29.98,North,5,0.0,0.0,88,0.00,CLR,,0.00,WeatherDisplay:10.37,2013-08-02 03:29:00,
2013-08-01 23:31:00,60.9,57.6,29.98,North,5,0.0,0.0,89,0.00,CLR,,0.00,WeatherDisplay:10.37,2013-08-02 03:31:00,
2013-08-01 23:35:00,60.7,57.1,29.98,North,5,0.0,0.0,88,0.00,CLR,,0.00,WeatherDisplay:10.37,2013-08-02 03:35:00,
2013-08-01 23:36:00,60.7,57.4,29.98,North,5,0.0,0.0,89,0.00,CLR,,0.00,WeatherDisplay:10.37,2013-08-02 03:36:00,
2013-08-01 23:38:00,60.6,57.0,29.98,North,5,0.0,0.0,88,0.00,CLR,,0.00,WeatherDisplay:10.37,2013-08-02 03:38:00,
2013-08-01 23:40:00,60.5,57.2,29.98,North,5,0.0,0.0,89,0.00,CLR,,0.00,WeatherDisplay:10.37,2013-08-02 03:40:00,
2013-08-01 23:41:00,60.5,57.2,29.98,North,5,0.0,0.0,89,0.00,CLR,,0.00,WeatherDisplay:10.37,2013-08-02 03:41:00,
2013-08-01 23:42:00,60.5,57.2,29.98,North,5,0.0,0.0,89,0.00,CLR,,0.00,WeatherDisplay:10.37,2013-08-02 03:42:00,
2013-08-01 23:44:00,60.4,57.1,29.98,North,5,0.0,0.0,89,0.00,CLR,,0.00,WeatherDisplay:10.37,2013-08-02 03:44:00,
2013-08-01 23:46:00,60.3,57.0,29.98,North,5,0.0,0.0,89,0.00,CLR,,0.00,WeatherDisplay:10.37,2013-08-02 03:46:00,
2013-08-01 23:49:00,60.2,56.9,29.98,North,5,0.0,0.0,89,0.00,CLR,,0.00,WeatherDisplay:10.37,2013-08-02 03:49:00,
2013-08-01 23:51:00,60.1,56.8,29.98,North,5,0.0,0.0,89,0.00,CLR,,0.00,WeatherDisplay:10.37,2013-08-02 03:51:00,
2013-08-01 23:52:00,60.0,56.7,29.98,North,5,0.0,0.0,89,0.00,CLR,,0.00,WeatherDisplay:10.37,2013-08-02 03:52:00,
2013-08-01 23:54:00,59.9,57.0,29.99,North,5,0.0,0.0,90,0.00,CLR,,0.00,WeatherDisplay:10.37,2013-08-02 03:54:00,
2013-08-01 23:55:00,59.9,57.3,29.98,North,5,0.0,0.0,91,0.00,CLR,,0.00,WeatherDisplay:10.37,2013-08-02 03:55:00,
2013-08-01 23:57:00,59.8,57.2,29.98,North,5,0.0,0.0,91,0.00,CLR,,0.00,WeatherDisplay:10.37,2013-08-02 03:57:00,
2013-08-01 23:58:00,59.8,57.2,29.98,North,5,0.0,0.0,91,0.00,CLR,,0.00,WeatherDisplay:10.37,2013-08-02 03:58:00,